<?xml version="1.0" encoding="UTF-8" standalone="no" ?><gpx xmlns="http://www.topografix.com/GPX/1/1" xmlns:gpxx="http://www.garmin.com/xmlschemas/GpxExtensions/v3" xmlns:wptx1="http://www.garmin.com/xmlschemas/WaypointExtension/v1" xmlns:gpxtpx="http://www.garmin.com/xmlschemas/TrackPointExtension/v1" creator="GuideVTT.com" version="1.1" xmlns:xsi="http://www.w3.org/2001/XMLSchema-instance" xsi:schemaLocation="http://www.topografix.com/GPX/1/1 http://www.topografix.com/GPX/1/1/gpx.xsd http://www.garmin.com/xmlschemas/GpxExtensions/v3 http://www8.garmin.com/xmlschemas/GpxExtensionsv3.xsd http://www.garmin.com/xmlschemas/WaypointExtension/v1 http://www8.garmin.com/xmlschemas/WaypointExtensionv1.xsd http://www.garmin.com/xmlschemas/TrackPointExtension/v1 http://www.garmin.com/xmlschemas/TrackPointExtensionv1.xsd">
<metadata><link href="http://www.garmin.com"><text>Garmin International</text></link><time>2013-06-22T15:13:50Z</time></metadata>
<trk><name>2020-12-20_0905__20201220_0905.gpx</name><extensions><gpxx:TrackExtension><gpxx:DisplayColor>Cyan</gpxx:DisplayColor></gpxx:TrackExtension></extensions><trkseg>
<trkpt lat="49.1253570" lon="2.6929526"><ele></ele><time>2022-6-18T2:41:41Z</time></trkpt>
<trkpt lat="49.1391559" lon="2.7280996"><ele></ele><time>2022-6-18T2:41:44Z</time></trkpt>
<trkpt lat="49.1393262" lon="2.7280003"><ele></ele><time>2022-6-18T2:41:47Z</time></trkpt>
<trkpt lat="49.1395083" lon="2.7278460"><ele></ele><time>2022-6-18T2:41:50Z</time></trkpt>
<trkpt lat="49.1396594" lon="2.7276604"><ele></ele><time>2022-6-18T2:41:53Z</time></trkpt>
<trkpt lat="49.1398227" lon="2.7274473"><ele></ele><time>2022-6-18T2:41:56Z</time></trkpt>
<trkpt lat="49.1399443" lon="2.7272416"><ele></ele><time>2022-6-18T2:41:59Z</time></trkpt>
<trkpt lat="49.1400592" lon="2.7269932"><ele></ele><time>2022-6-18T2:42:2Z</time></trkpt>
<trkpt lat="49.1401474" lon="2.7267476"><ele></ele><time>2022-6-18T2:42:5Z</time></trkpt>
<trkpt lat="49.1402630" lon="2.7265119"><ele></ele><time>2022-6-18T2:42:8Z</time></trkpt>
<trkpt lat="49.1403659" lon="2.7262330"><ele></ele><time>2022-6-18T2:42:11Z</time></trkpt>
<trkpt lat="49.1404418" lon="2.7259800"><ele></ele><time>2022-6-18T2:42:14Z</time></trkpt>
<trkpt lat="49.1405656" lon="2.7257482"><ele></ele><time>2022-6-18T2:42:17Z</time></trkpt>
<trkpt lat="49.1406355" lon="2.7254877"><ele></ele><time>2022-6-18T2:42:20Z</time></trkpt>
<trkpt lat="49.1407459" lon="2.7251709"><ele></ele><time>2022-6-18T2:42:23Z</time></trkpt>
<trkpt lat="49.1408551" lon="2.7248884"><ele></ele><time>2022-6-18T2:42:26Z</time></trkpt>
<trkpt lat="49.1409672" lon="2.7246168"><ele></ele><time>2022-6-18T2:42:29Z</time></trkpt>
<trkpt lat="49.1410684" lon="2.7243886"><ele></ele><time>2022-6-18T2:42:32Z</time></trkpt>
<trkpt lat="49.1411973" lon="2.7241232"><ele></ele><time>2022-6-18T2:42:35Z</time></trkpt>
<trkpt lat="49.1413400" lon="2.7238716"><ele></ele><time>2022-6-18T2:42:38Z</time></trkpt>
<trkpt lat="49.1414568" lon="2.7235995"><ele></ele><time>2022-6-18T2:42:41Z</time></trkpt>
<trkpt lat="49.1415638" lon="2.7233320"><ele></ele><time>2022-6-18T2:42:44Z</time></trkpt>
<trkpt lat="49.1416818" lon="2.7231055"><ele></ele><time>2022-6-18T2:42:47Z</time></trkpt>
<trkpt lat="49.1417915" lon="2.7228524"><ele></ele><time>2022-6-18T2:42:50Z</time></trkpt>
<trkpt lat="49.1419062" lon="2.7226090"><ele></ele><time>2022-6-18T2:42:53Z</time></trkpt>
<trkpt lat="49.1420247" lon="2.7223879"><ele></ele><time>2022-6-18T2:42:56Z</time></trkpt>
<trkpt lat="49.1421396" lon="2.7221366"><ele></ele><time>2022-6-18T2:42:59Z</time></trkpt>
<trkpt lat="49.1422864" lon="2.7219058"><ele></ele><time>2022-6-18T2:43:2Z</time></trkpt>
<trkpt lat="49.1424212" lon="2.7217031"><ele></ele><time>2022-6-18T2:43:5Z</time></trkpt>
<trkpt lat="49.1425311" lon="2.7214320"><ele></ele><time>2022-6-18T2:43:8Z</time></trkpt>
<trkpt lat="49.1426472" lon="2.7211664"><ele></ele><time>2022-6-18T2:43:11Z</time></trkpt>
<trkpt lat="49.1427550" lon="2.7209007"><ele></ele><time>2022-6-18T2:43:14Z</time></trkpt>
<trkpt lat="49.1428866" lon="2.7206214"><ele></ele><time>2022-6-18T2:43:17Z</time></trkpt>
<trkpt lat="49.1430015" lon="2.7203492"><ele></ele><time>2022-6-18T2:43:20Z</time></trkpt>
<trkpt lat="49.1431242" lon="2.7200998"><ele></ele><time>2022-6-18T2:43:23Z</time></trkpt>
<trkpt lat="49.1432233" lon="2.7198103"><ele></ele><time>2022-6-18T2:43:26Z</time></trkpt>
<trkpt lat="49.1433327" lon="2.7195313"><ele></ele><time>2022-6-18T2:43:29Z</time></trkpt>
<trkpt lat="49.1435200" lon="2.7195782"><ele></ele><time>2022-6-18T2:43:32Z</time></trkpt>
<trkpt lat="49.1435771" lon="2.7198648"><ele></ele><time>2022-6-18T2:43:35Z</time></trkpt>
<trkpt lat="49.1436362" lon="2.7201485"><ele></ele><time>2022-6-18T2:43:38Z</time></trkpt>
<trkpt lat="49.1437036" lon="2.7204365"><ele></ele><time>2022-6-18T2:43:41Z</time></trkpt>
<trkpt lat="49.1437605" lon="2.7207289"><ele></ele><time>2022-6-18T2:43:44Z</time></trkpt>
<trkpt lat="49.1437793" lon="2.7210062"><ele></ele><time>2022-6-18T2:43:47Z</time></trkpt>
<trkpt lat="49.1438358" lon="2.7212932"><ele></ele><time>2022-6-18T2:43:50Z</time></trkpt>
<trkpt lat="49.1438950" lon="2.7216089"><ele></ele><time>2022-6-18T2:43:53Z</time></trkpt>
<trkpt lat="49.1439362" lon="2.7219118"><ele></ele><time>2022-6-18T2:43:56Z</time></trkpt>
<trkpt lat="49.1439822" lon="2.7221948"><ele></ele><time>2022-6-18T2:43:59Z</time></trkpt>
<trkpt lat="49.1440035" lon="2.7224713"><ele></ele><time>2022-6-18T2:44:2Z</time></trkpt>
<trkpt lat="49.1440749" lon="2.7227706"><ele></ele><time>2022-6-18T2:44:5Z</time></trkpt>
<trkpt lat="49.1441407" lon="2.7230658"><ele></ele><time>2022-6-18T2:44:8Z</time></trkpt>
<trkpt lat="49.1441979" lon="2.7233723"><ele></ele><time>2022-6-18T2:44:11Z</time></trkpt>
<trkpt lat="49.1442180" lon="2.7236732"><ele></ele><time>2022-6-18T2:44:14Z</time></trkpt>
<trkpt lat="49.1442595" lon="2.7239828"><ele></ele><time>2022-6-18T2:44:17Z</time></trkpt>
<trkpt lat="49.1443073" lon="2.7242587"><ele></ele><time>2022-6-18T2:44:20Z</time></trkpt>
<trkpt lat="49.1445032" lon="2.7241653"><ele></ele><time>2022-6-18T2:44:23Z</time></trkpt>
<trkpt lat="49.1446790" lon="2.7240094"><ele></ele><time>2022-6-18T2:44:26Z</time></trkpt>
<trkpt lat="49.1448415" lon="2.7238512"><ele></ele><time>2022-6-18T2:44:29Z</time></trkpt>
<trkpt lat="49.1450254" lon="2.7236912"><ele></ele><time>2022-6-18T2:44:32Z</time></trkpt>
<trkpt lat="49.1451948" lon="2.7235211"><ele></ele><time>2022-6-18T2:44:35Z</time></trkpt>
<trkpt lat="49.1453667" lon="2.7233484"><ele></ele><time>2022-6-18T2:44:38Z</time></trkpt>
<trkpt lat="49.1455334" lon="2.7232375"><ele></ele><time>2022-6-18T2:44:41Z</time></trkpt>
<trkpt lat="49.1456994" lon="2.7231198"><ele></ele><time>2022-6-18T2:44:44Z</time></trkpt>
<trkpt lat="49.1458582" lon="2.7229736"><ele></ele><time>2022-6-18T2:44:47Z</time></trkpt>
<trkpt lat="49.1460101" lon="2.7228261"><ele></ele><time>2022-6-18T2:44:50Z</time></trkpt>
<trkpt lat="49.1461803" lon="2.7227068"><ele></ele><time>2022-6-18T2:44:53Z</time></trkpt>
<trkpt lat="49.1463396" lon="2.7225327"><ele></ele><time>2022-6-18T2:44:56Z</time></trkpt>
<trkpt lat="49.1465239" lon="2.7224789"><ele></ele><time>2022-6-18T2:44:59Z</time></trkpt>
<trkpt lat="49.1467173" lon="2.7224609"><ele></ele><time>2022-6-18T2:45:2Z</time></trkpt>
<trkpt lat="49.1469004" lon="2.7223455"><ele></ele><time>2022-6-18T2:45:5Z</time></trkpt>
<trkpt lat="49.1470581" lon="2.7221809"><ele></ele><time>2022-6-18T2:45:8Z</time></trkpt>
<trkpt lat="49.1472152" lon="2.7223276"><ele></ele><time>2022-6-18T2:45:11Z</time></trkpt>
<trkpt lat="49.1473896" lon="2.7224563"><ele></ele><time>2022-6-18T2:45:14Z</time></trkpt>
<trkpt lat="49.1475609" lon="2.7225412"><ele></ele><time>2022-6-18T2:45:17Z</time></trkpt>
<trkpt lat="49.1477413" lon="2.7227224"><ele></ele><time>2022-6-18T2:45:20Z</time></trkpt>
<trkpt lat="49.1479085" lon="2.7228396"><ele></ele><time>2022-6-18T2:45:23Z</time></trkpt>
<trkpt lat="49.1481071" lon="2.7229504"><ele></ele><time>2022-6-18T2:45:26Z</time></trkpt>
<trkpt lat="49.1482842" lon="2.7230225"><ele></ele><time>2022-6-18T2:45:29Z</time></trkpt>
<trkpt lat="49.1485061" lon="2.7230841"><ele></ele><time>2022-6-18T2:45:32Z</time></trkpt>
<trkpt lat="49.1486878" lon="2.7230179"><ele></ele><time>2022-6-18T2:45:35Z</time></trkpt>
<trkpt lat="49.1488876" lon="2.7229608"><ele></ele><time>2022-6-18T2:45:38Z</time></trkpt>
<trkpt lat="49.1491068" lon="2.7229208"><ele></ele><time>2022-6-18T2:45:41Z</time></trkpt>
<trkpt lat="49.1492966" lon="2.7230215"><ele></ele><time>2022-6-18T2:45:44Z</time></trkpt>
<trkpt lat="49.1494996" lon="2.7230863"><ele></ele><time>2022-6-18T2:45:47Z</time></trkpt>
<trkpt lat="49.1496946" lon="2.7230391"><ele></ele><time>2022-6-18T2:45:50Z</time></trkpt>
<trkpt lat="49.1498780" lon="2.7230149"><ele></ele><time>2022-6-18T2:45:53Z</time></trkpt>
<trkpt lat="49.1500669" lon="2.7229489"><ele></ele><time>2022-6-18T2:45:56Z</time></trkpt>
<trkpt lat="49.1502423" lon="2.7228189"><ele></ele><time>2022-6-18T2:45:59Z</time></trkpt>
<trkpt lat="49.1503786" lon="2.7226078"><ele></ele><time>2022-6-18T2:46:2Z</time></trkpt>
<trkpt lat="49.1503861" lon="2.7223069"><ele></ele><time>2022-6-18T2:46:5Z</time></trkpt>
<trkpt lat="49.1504381" lon="2.7220274"><ele></ele><time>2022-6-18T2:46:8Z</time></trkpt>
<trkpt lat="49.1504881" lon="2.7217610"><ele></ele><time>2022-6-18T2:46:11Z</time></trkpt>
<trkpt lat="49.1504190" lon="2.7214997"><ele></ele><time>2022-6-18T2:46:14Z</time></trkpt>
<trkpt lat="49.1503293" lon="2.7212478"><ele></ele><time>2022-6-18T2:46:17Z</time></trkpt>
<trkpt lat="49.1502600" lon="2.7209932"><ele></ele><time>2022-6-18T2:46:20Z</time></trkpt>
<trkpt lat="49.1500883" lon="2.7208842"><ele></ele><time>2022-6-18T2:46:23Z</time></trkpt>
<trkpt lat="49.1499937" lon="2.7206269"><ele></ele><time>2022-6-18T2:46:26Z</time></trkpt>
<trkpt lat="49.1499411" lon="2.7203602"><ele></ele><time>2022-6-18T2:46:29Z</time></trkpt>
<trkpt lat="49.1499767" lon="2.7200835"><ele></ele><time>2022-6-18T2:46:32Z</time></trkpt>
<trkpt lat="49.1499783" lon="2.7198035"><ele></ele><time>2022-6-18T2:46:35Z</time></trkpt>
<trkpt lat="49.1498627" lon="2.7195457"><ele></ele><time>2022-6-18T2:46:38Z</time></trkpt>
<trkpt lat="49.1496942" lon="2.7193834"><ele></ele><time>2022-6-18T2:46:41Z</time></trkpt>
<trkpt lat="49.1495251" lon="2.7192840"><ele></ele><time>2022-6-18T2:46:44Z</time></trkpt>
<trkpt lat="49.1493791" lon="2.7190650"><ele></ele><time>2022-6-18T2:46:47Z</time></trkpt>
<trkpt lat="49.1494180" lon="2.7187927"><ele></ele><time>2022-6-18T2:46:50Z</time></trkpt>
<trkpt lat="49.1495955" lon="2.7186138"><ele></ele><time>2022-6-18T2:46:53Z</time></trkpt>
<trkpt lat="49.1497539" lon="2.7184716"><ele></ele><time>2022-6-18T2:46:56Z</time></trkpt>
<trkpt lat="49.1498981" lon="2.7182631"><ele></ele><time>2022-6-18T2:46:59Z</time></trkpt>
<trkpt lat="49.1499921" lon="2.7179722"><ele></ele><time>2022-6-18T2:47:2Z</time></trkpt>
<trkpt lat="49.1500674" lon="2.7176894"><ele></ele><time>2022-6-18T2:47:5Z</time></trkpt>
<trkpt lat="49.1499157" lon="2.7174900"><ele></ele><time>2022-6-18T2:47:8Z</time></trkpt>
<trkpt lat="49.1497320" lon="2.7174282"><ele></ele><time>2022-6-18T2:47:11Z</time></trkpt>
<trkpt lat="49.1495757" lon="2.7176103"><ele></ele><time>2022-6-18T2:47:14Z</time></trkpt>
<trkpt lat="49.1494118" lon="2.7177709"><ele></ele><time>2022-6-18T2:47:17Z</time></trkpt>
<trkpt lat="49.1492517" lon="2.7179314"><ele></ele><time>2022-6-18T2:47:20Z</time></trkpt>
<trkpt lat="49.1492019" lon="2.7182166"><ele></ele><time>2022-6-18T2:47:23Z</time></trkpt>
<trkpt lat="49.1491718" lon="2.7184900"><ele></ele><time>2022-6-18T2:47:26Z</time></trkpt>
<trkpt lat="49.1489969" lon="2.7186105"><ele></ele><time>2022-6-18T2:47:29Z</time></trkpt>
<trkpt lat="49.1488551" lon="2.7183970"><ele></ele><time>2022-6-18T2:47:32Z</time></trkpt>
<trkpt lat="49.1487338" lon="2.7181567"><ele></ele><time>2022-6-18T2:47:35Z</time></trkpt>
<trkpt lat="49.1486314" lon="2.7179295"><ele></ele><time>2022-6-18T2:47:38Z</time></trkpt>
<trkpt lat="49.1485215" lon="2.7176926"><ele></ele><time>2022-6-18T2:47:41Z</time></trkpt>
<trkpt lat="49.1483688" lon="2.7175126"><ele></ele><time>2022-6-18T2:47:44Z</time></trkpt>
<trkpt lat="49.1481563" lon="2.7175026"><ele></ele><time>2022-6-18T2:47:47Z</time></trkpt>
<trkpt lat="49.1479787" lon="2.7176265"><ele></ele><time>2022-6-18T2:47:50Z</time></trkpt>
<trkpt lat="49.1478080" lon="2.7174364"><ele></ele><time>2022-6-18T2:47:53Z</time></trkpt>
<trkpt lat="49.1477345" lon="2.7171813"><ele></ele><time>2022-6-18T2:47:56Z</time></trkpt>
<trkpt lat="49.1477839" lon="2.7168809"><ele></ele><time>2022-6-18T2:47:59Z</time></trkpt>
<trkpt lat="49.1478707" lon="2.7166060"><ele></ele><time>2022-6-18T2:48:2Z</time></trkpt>
<trkpt lat="49.1478657" lon="2.7162912"><ele></ele><time>2022-6-18T2:48:5Z</time></trkpt>
<trkpt lat="49.1479003" lon="2.7160145"><ele></ele><time>2022-6-18T2:48:8Z</time></trkpt>
<trkpt lat="49.1479443" lon="2.7157113"><ele></ele><time>2022-6-18T2:48:11Z</time></trkpt>
<trkpt lat="49.1480022" lon="2.7153682"><ele></ele><time>2022-6-18T2:48:14Z</time></trkpt>
<trkpt lat="49.1480572" lon="2.7149036"><ele></ele><time>2022-6-18T2:48:17Z</time></trkpt>
<trkpt lat="49.1481576" lon="2.7145731"><ele></ele><time>2022-6-18T2:48:20Z</time></trkpt>
<trkpt lat="49.1481832" lon="2.7142951"><ele></ele><time>2022-6-18T2:48:23Z</time></trkpt>
<trkpt lat="49.1482632" lon="2.7139693"><ele></ele><time>2022-6-18T2:48:26Z</time></trkpt>
<trkpt lat="49.1482913" lon="2.7136702"><ele></ele><time>2022-6-18T2:48:29Z</time></trkpt>
<trkpt lat="49.1484650" lon="2.7138083"><ele></ele><time>2022-6-18T2:48:32Z</time></trkpt>
<trkpt lat="49.1486155" lon="2.7140128"><ele></ele><time>2022-6-18T2:48:35Z</time></trkpt>
<trkpt lat="49.1487769" lon="2.7142175"><ele></ele><time>2022-6-18T2:48:38Z</time></trkpt>
<trkpt lat="49.1489459" lon="2.7144308"><ele></ele><time>2022-6-18T2:48:41Z</time></trkpt>
<trkpt lat="49.1491297" lon="2.7146322"><ele></ele><time>2022-6-18T2:48:44Z</time></trkpt>
<trkpt lat="49.1493319" lon="2.7147947"><ele></ele><time>2022-6-18T2:48:47Z</time></trkpt>
<trkpt lat="49.1494705" lon="2.7149721"><ele></ele><time>2022-6-18T2:48:50Z</time></trkpt>
<trkpt lat="49.1496035" lon="2.7151575"><ele></ele><time>2022-6-18T2:48:53Z</time></trkpt>
<trkpt lat="49.1497877" lon="2.7152949"><ele></ele><time>2022-6-18T2:48:56Z</time></trkpt>
<trkpt lat="49.1499332" lon="2.7154652"><ele></ele><time>2022-6-18T2:48:59Z</time></trkpt>
<trkpt lat="49.1500546" lon="2.7156787"><ele></ele><time>2022-6-18T2:49:2Z</time></trkpt>
<trkpt lat="49.1501766" lon="2.7159223"><ele></ele><time>2022-6-18T2:49:5Z</time></trkpt>
<trkpt lat="49.1503091" lon="2.7161384"><ele></ele><time>2022-6-18T2:49:8Z</time></trkpt>
<trkpt lat="49.1504417" lon="2.7163872"><ele></ele><time>2022-6-18T2:49:11Z</time></trkpt>
<trkpt lat="49.1505603" lon="2.7166645"><ele></ele><time>2022-6-18T2:49:14Z</time></trkpt>
<trkpt lat="49.1506938" lon="2.7169218"><ele></ele><time>2022-6-18T2:49:17Z</time></trkpt>
<trkpt lat="49.1507932" lon="2.7172271"><ele></ele><time>2022-6-18T2:49:20Z</time></trkpt>
<trkpt lat="49.1508813" lon="2.7175018"><ele></ele><time>2022-6-18T2:49:23Z</time></trkpt>
<trkpt lat="49.1509792" lon="2.7177435"><ele></ele><time>2022-6-18T2:49:26Z</time></trkpt>
<trkpt lat="49.1510187" lon="2.7180202"><ele></ele><time>2022-6-18T2:49:29Z</time></trkpt>
<trkpt lat="49.1509371" lon="2.7182725"><ele></ele><time>2022-6-18T2:49:32Z</time></trkpt>
<trkpt lat="49.1509549" lon="2.7185822"><ele></ele><time>2022-6-18T2:49:35Z</time></trkpt>
<trkpt lat="49.1509465" lon="2.7188634"><ele></ele><time>2022-6-18T2:49:38Z</time></trkpt>
<trkpt lat="49.1509918" lon="2.7191677"><ele></ele><time>2022-6-18T2:49:41Z</time></trkpt>
<trkpt lat="49.1510076" lon="2.7194572"><ele></ele><time>2022-6-18T2:49:44Z</time></trkpt>
<trkpt lat="49.1510466" lon="2.7197690"><ele></ele><time>2022-6-18T2:49:47Z</time></trkpt>
<trkpt lat="49.1510706" lon="2.7200502"><ele></ele><time>2022-6-18T2:49:50Z</time></trkpt>
<trkpt lat="49.1510596" lon="2.7203567"><ele></ele><time>2022-6-18T2:49:53Z</time></trkpt>
<trkpt lat="49.1510447" lon="2.7206345"><ele></ele><time>2022-6-18T2:49:56Z</time></trkpt>
<trkpt lat="49.1510381" lon="2.7209133"><ele></ele><time>2022-6-18T2:49:59Z</time></trkpt>
<trkpt lat="49.1510443" lon="2.7212407"><ele></ele><time>2022-6-18T2:50:2Z</time></trkpt>
<trkpt lat="49.1510644" lon="2.7215398"><ele></ele><time>2022-6-18T2:50:5Z</time></trkpt>
<trkpt lat="49.1508839" lon="2.7216333"><ele></ele><time>2022-6-18T2:50:8Z</time></trkpt>
<trkpt lat="49.1507024" lon="2.7216819"><ele></ele><time>2022-6-18T2:50:11Z</time></trkpt>
<trkpt lat="49.1505211" lon="2.7217846"><ele></ele><time>2022-6-18T2:50:14Z</time></trkpt>
<trkpt lat="49.1504614" lon="2.7215213"><ele></ele><time>2022-6-18T2:50:17Z</time></trkpt>
<trkpt lat="49.1503418" lon="2.7212939"><ele></ele><time>2022-6-18T2:50:20Z</time></trkpt>
<trkpt lat="49.1502771" lon="2.7210307"><ele></ele><time>2022-6-18T2:50:23Z</time></trkpt>
<trkpt lat="49.1501043" lon="2.7209217"><ele></ele><time>2022-6-18T2:50:26Z</time></trkpt>
<trkpt lat="49.1499934" lon="2.7206914"><ele></ele><time>2022-6-18T2:50:29Z</time></trkpt>
<trkpt lat="49.1499302" lon="2.7204289"><ele></ele><time>2022-6-18T2:50:32Z</time></trkpt>
<trkpt lat="49.1500098" lon="2.7201479"><ele></ele><time>2022-6-18T2:50:35Z</time></trkpt>
<trkpt lat="49.1500285" lon="2.7198716"><ele></ele><time>2022-6-18T2:50:38Z</time></trkpt>
<trkpt lat="49.1499449" lon="2.7196236"><ele></ele><time>2022-6-18T2:50:41Z</time></trkpt>
<trkpt lat="49.1497853" lon="2.7194189"><ele></ele><time>2022-6-18T2:50:44Z</time></trkpt>
<trkpt lat="49.1496096" lon="2.7193086"><ele></ele><time>2022-6-18T2:50:47Z</time></trkpt>
<trkpt lat="49.1494557" lon="2.7191284"><ele></ele><time>2022-6-18T2:50:50Z</time></trkpt>
<trkpt lat="49.1492976" lon="2.7189384"><ele></ele><time>2022-6-18T2:50:53Z</time></trkpt>
<trkpt lat="49.1491245" lon="2.7187727"><ele></ele><time>2022-6-18T2:50:56Z</time></trkpt>
<trkpt lat="49.1489790" lon="2.7185884"><ele></ele><time>2022-6-18T2:50:59Z</time></trkpt>
<trkpt lat="49.1488672" lon="2.7183631"><ele></ele><time>2022-6-18T2:51:2Z</time></trkpt>
<trkpt lat="49.1486929" lon="2.7181097"><ele></ele><time>2022-6-18T2:51:5Z</time></trkpt>
<trkpt lat="49.1485625" lon="2.7178494"><ele></ele><time>2022-6-18T2:51:8Z</time></trkpt>
<trkpt lat="49.1484564" lon="2.7175569"><ele></ele><time>2022-6-18T2:51:11Z</time></trkpt>
<trkpt lat="49.1482630" lon="2.7174703"><ele></ele><time>2022-6-18T2:51:14Z</time></trkpt>
<trkpt lat="49.1480572" lon="2.7175469"><ele></ele><time>2022-6-18T2:51:17Z</time></trkpt>
<trkpt lat="49.1478834" lon="2.7176443"><ele></ele><time>2022-6-18T2:51:20Z</time></trkpt>
<trkpt lat="49.1477003" lon="2.7176463"><ele></ele><time>2022-6-18T2:51:23Z</time></trkpt>
<trkpt lat="49.1475007" lon="2.7176664"><ele></ele><time>2022-6-18T2:51:26Z</time></trkpt>
<trkpt lat="49.1473033" lon="2.7177614"><ele></ele><time>2022-6-18T2:51:29Z</time></trkpt>
<trkpt lat="49.1471297" lon="2.7176561"><ele></ele><time>2022-6-18T2:51:32Z</time></trkpt>
<trkpt lat="49.1469460" lon="2.7176615"><ele></ele><time>2022-6-18T2:51:35Z</time></trkpt>
<trkpt lat="49.1467398" lon="2.7176046"><ele></ele><time>2022-6-18T2:51:38Z</time></trkpt>
<trkpt lat="49.1465485" lon="2.7175899"><ele></ele><time>2022-6-18T2:51:41Z</time></trkpt>
<trkpt lat="49.1463630" lon="2.7176133"><ele></ele><time>2022-6-18T2:51:44Z</time></trkpt>
<trkpt lat="49.1461821" lon="2.7176243"><ele></ele><time>2022-6-18T2:51:47Z</time></trkpt>
<trkpt lat="49.1459766" lon="2.7175987"><ele></ele><time>2022-6-18T2:51:50Z</time></trkpt>
<trkpt lat="49.1458033" lon="2.7174828"><ele></ele><time>2022-6-18T2:51:53Z</time></trkpt>
<trkpt lat="49.1456136" lon="2.7174599"><ele></ele><time>2022-6-18T2:51:56Z</time></trkpt>
<trkpt lat="49.1454411" lon="2.7173740"><ele></ele><time>2022-6-18T2:51:59Z</time></trkpt>
<trkpt lat="49.1452531" lon="2.7172509"><ele></ele><time>2022-6-18T2:52:2Z</time></trkpt>
<trkpt lat="49.1450580" lon="2.7171221"><ele></ele><time>2022-6-18T2:52:5Z</time></trkpt>
<trkpt lat="49.1448508" lon="2.7170020"><ele></ele><time>2022-6-18T2:52:8Z</time></trkpt>
<trkpt lat="49.1446796" lon="2.7168879"><ele></ele><time>2022-6-18T2:52:11Z</time></trkpt>
<trkpt lat="49.1445312" lon="2.7167032"><ele></ele><time>2022-6-18T2:52:14Z</time></trkpt>
<trkpt lat="49.1443809" lon="2.7165452"><ele></ele><time>2022-6-18T2:52:17Z</time></trkpt>
<trkpt lat="49.1442089" lon="2.7164187"><ele></ele><time>2022-6-18T2:52:20Z</time></trkpt>
<trkpt lat="49.1440439" lon="2.7162725"><ele></ele><time>2022-6-18T2:52:23Z</time></trkpt>
<trkpt lat="49.1438653" lon="2.7161408"><ele></ele><time>2022-6-18T2:52:26Z</time></trkpt>
<trkpt lat="49.1437091" lon="2.7159940"><ele></ele><time>2022-6-18T2:52:29Z</time></trkpt>
<trkpt lat="49.1435230" lon="2.7158453"><ele></ele><time>2022-6-18T2:52:32Z</time></trkpt>
<trkpt lat="49.1433756" lon="2.7156765"><ele></ele><time>2022-6-18T2:52:35Z</time></trkpt>
<trkpt lat="49.1432081" lon="2.7155149"><ele></ele><time>2022-6-18T2:52:38Z</time></trkpt>
<trkpt lat="49.1430492" lon="2.7153753"><ele></ele><time>2022-6-18T2:52:41Z</time></trkpt>
<trkpt lat="49.1428792" lon="2.7152466"><ele></ele><time>2022-6-18T2:52:44Z</time></trkpt>
<trkpt lat="49.1427084" lon="2.7150800"><ele></ele><time>2022-6-18T2:52:47Z</time></trkpt>
<trkpt lat="49.1425475" lon="2.7149169"><ele></ele><time>2022-6-18T2:52:50Z</time></trkpt>
<trkpt lat="49.1423678" lon="2.7147428"><ele></ele><time>2022-6-18T2:52:53Z</time></trkpt>
<trkpt lat="49.1422081" lon="2.7145787"><ele></ele><time>2022-6-18T2:52:56Z</time></trkpt>
<trkpt lat="49.1420357" lon="2.7144293"><ele></ele><time>2022-6-18T2:52:59Z</time></trkpt>
<trkpt lat="49.1418388" lon="2.7143303"><ele></ele><time>2022-6-18T2:53:2Z</time></trkpt>
<trkpt lat="49.1418039" lon="2.7140558"><ele></ele><time>2022-6-18T2:53:5Z</time></trkpt>
<trkpt lat="49.1417094" lon="2.7137802"><ele></ele><time>2022-6-18T2:53:8Z</time></trkpt>
<trkpt lat="49.1417220" lon="2.7134835"><ele></ele><time>2022-6-18T2:53:11Z</time></trkpt>
<trkpt lat="49.1417140" lon="2.7131797"><ele></ele><time>2022-6-18T2:53:14Z</time></trkpt>
<trkpt lat="49.1416812" lon="2.7128717"><ele></ele><time>2022-6-18T2:53:17Z</time></trkpt>
<trkpt lat="49.1416199" lon="2.7125918"><ele></ele><time>2022-6-18T2:53:20Z</time></trkpt>
<trkpt lat="49.1415360" lon="2.7123430"><ele></ele><time>2022-6-18T2:53:23Z</time></trkpt>
<trkpt lat="49.1414272" lon="2.7120955"><ele></ele><time>2022-6-18T2:53:26Z</time></trkpt>
<trkpt lat="49.1413204" lon="2.7117809"><ele></ele><time>2022-6-18T2:53:29Z</time></trkpt>
<trkpt lat="49.1411810" lon="2.7115193"><ele></ele><time>2022-6-18T2:53:32Z</time></trkpt>
<trkpt lat="49.1410308" lon="2.7113492"><ele></ele><time>2022-6-18T2:53:35Z</time></trkpt>
<trkpt lat="49.1408999" lon="2.7111597"><ele></ele><time>2022-6-18T2:53:38Z</time></trkpt>
<trkpt lat="49.1407915" lon="2.7109134"><ele></ele><time>2022-6-18T2:53:41Z</time></trkpt>
<trkpt lat="49.1407265" lon="2.7106526"><ele></ele><time>2022-6-18T2:53:44Z</time></trkpt>
<trkpt lat="49.1406084" lon="2.7104218"><ele></ele><time>2022-6-18T2:53:47Z</time></trkpt>
<trkpt lat="49.1405117" lon="2.7101139"><ele></ele><time>2022-6-18T2:53:50Z</time></trkpt>
<trkpt lat="49.1404312" lon="2.7098667"><ele></ele><time>2022-6-18T2:53:53Z</time></trkpt>
<trkpt lat="49.1404257" lon="2.7095832"><ele></ele><time>2022-6-18T2:53:56Z</time></trkpt>
<trkpt lat="49.1405038" lon="2.7092667"><ele></ele><time>2022-6-18T2:53:59Z</time></trkpt>
<trkpt lat="49.1403890" lon="2.7090276"><ele></ele><time>2022-6-18T2:54:2Z</time></trkpt>
<trkpt lat="49.1403000" lon="2.7087779"><ele></ele><time>2022-6-18T2:54:5Z</time></trkpt>
<trkpt lat="49.1401568" lon="2.7086061"><ele></ele><time>2022-6-18T2:54:8Z</time></trkpt>
<trkpt lat="49.1399765" lon="2.7085365"><ele></ele><time>2022-6-18T2:54:11Z</time></trkpt>
<trkpt lat="49.1397936" lon="2.7084840"><ele></ele><time>2022-6-18T2:54:14Z</time></trkpt>
<trkpt lat="49.1396560" lon="2.7082889"><ele></ele><time>2022-6-18T2:54:17Z</time></trkpt>
<trkpt lat="49.1396279" lon="2.7079929"><ele></ele><time>2022-6-18T2:54:20Z</time></trkpt>
<trkpt lat="49.1397146" lon="2.7077012"><ele></ele><time>2022-6-18T2:54:23Z</time></trkpt>
<trkpt lat="49.1398736" lon="2.7075705"><ele></ele><time>2022-6-18T2:54:26Z</time></trkpt>
<trkpt lat="49.1400984" lon="2.7076781"><ele></ele><time>2022-6-18T2:54:29Z</time></trkpt>
<trkpt lat="49.1401778" lon="2.7079310"><ele></ele><time>2022-6-18T2:54:32Z</time></trkpt>
<trkpt lat="49.1402895" lon="2.7081530"><ele></ele><time>2022-6-18T2:54:35Z</time></trkpt>
<trkpt lat="49.1404089" lon="2.7083882"><ele></ele><time>2022-6-18T2:54:38Z</time></trkpt>
<trkpt lat="49.1405548" lon="2.7085854"><ele></ele><time>2022-6-18T2:54:41Z</time></trkpt>
<trkpt lat="49.1405622" lon="2.7088697"><ele></ele><time>2022-6-18T2:54:44Z</time></trkpt>
<trkpt lat="49.1404654" lon="2.7091014"><ele></ele><time>2022-6-18T2:54:47Z</time></trkpt>
<trkpt lat="49.1402869" lon="2.7091595"><ele></ele><time>2022-6-18T2:54:50Z</time></trkpt>
<trkpt lat="49.1401166" lon="2.7090440"><ele></ele><time>2022-6-18T2:54:53Z</time></trkpt>
<trkpt lat="49.1402882" lon="2.7091412"><ele></ele><time>2022-6-18T2:54:56Z</time></trkpt>
<trkpt lat="49.1403708" lon="2.7088920"><ele></ele><time>2022-6-18T2:54:59Z</time></trkpt>
<trkpt lat="49.1402442" lon="2.7086725"><ele></ele><time>2022-6-18T2:55:2Z</time></trkpt>
<trkpt lat="49.1400711" lon="2.7085805"><ele></ele><time>2022-6-18T2:55:5Z</time></trkpt>
<trkpt lat="49.1398878" lon="2.7085128"><ele></ele><time>2022-6-18T2:55:8Z</time></trkpt>
<trkpt lat="49.1397171" lon="2.7084026"><ele></ele><time>2022-6-18T2:55:11Z</time></trkpt>
<trkpt lat="49.1396152" lon="2.7081531"><ele></ele><time>2022-6-18T2:55:14Z</time></trkpt>
<trkpt lat="49.1396695" lon="2.7078818"><ele></ele><time>2022-6-18T2:55:17Z</time></trkpt>
<trkpt lat="49.1397788" lon="2.7075655"><ele></ele><time>2022-6-18T2:55:20Z</time></trkpt>
<trkpt lat="49.1398647" lon="2.7073085"><ele></ele><time>2022-6-18T2:55:23Z</time></trkpt>
<trkpt lat="49.1398803" lon="2.7070327"><ele></ele><time>2022-6-18T2:55:26Z</time></trkpt>
<trkpt lat="49.1399026" lon="2.7067371"><ele></ele><time>2022-6-18T2:55:29Z</time></trkpt>
<trkpt lat="49.1398611" lon="2.7064073"><ele></ele><time>2022-6-18T2:55:32Z</time></trkpt>
<trkpt lat="49.1399015" lon="2.7060876"><ele></ele><time>2022-6-18T2:55:35Z</time></trkpt>
<trkpt lat="49.1399691" lon="2.7057880"><ele></ele><time>2022-6-18T2:55:38Z</time></trkpt>
<trkpt lat="49.1398822" lon="2.7054936"><ele></ele><time>2022-6-18T2:55:41Z</time></trkpt>
<trkpt lat="49.1396852" lon="2.7053868"><ele></ele><time>2022-6-18T2:55:44Z</time></trkpt>
<trkpt lat="49.1396418" lon="2.7051191"><ele></ele><time>2022-6-18T2:55:47Z</time></trkpt>
<trkpt lat="49.1396508" lon="2.7048132"><ele></ele><time>2022-6-18T2:55:50Z</time></trkpt>
<trkpt lat="49.1395658" lon="2.7045546"><ele></ele><time>2022-6-18T2:55:53Z</time></trkpt>
<trkpt lat="49.1395481" lon="2.7042550"><ele></ele><time>2022-6-18T2:55:56Z</time></trkpt>
<trkpt lat="49.1393629" lon="2.7043378"><ele></ele><time>2022-6-18T2:55:59Z</time></trkpt>
<trkpt lat="49.1391743" lon="2.7042900"><ele></ele><time>2022-6-18T2:56:2Z</time></trkpt>
<trkpt lat="49.1389982" lon="2.7042342"><ele></ele><time>2022-6-18T2:56:5Z</time></trkpt>
<trkpt lat="49.1388369" lon="2.7041009"><ele></ele><time>2022-6-18T2:56:8Z</time></trkpt>
<trkpt lat="49.1386692" lon="2.7039574"><ele></ele><time>2022-6-18T2:56:11Z</time></trkpt>
<trkpt lat="49.1384692" lon="2.7038643"><ele></ele><time>2022-6-18T2:56:14Z</time></trkpt>
<trkpt lat="49.1382526" lon="2.7038827"><ele></ele><time>2022-6-18T2:56:17Z</time></trkpt>
<trkpt lat="49.1380593" lon="2.7039673"><ele></ele><time>2022-6-18T2:56:20Z</time></trkpt>
<trkpt lat="49.1378731" lon="2.7040162"><ele></ele><time>2022-6-18T2:56:23Z</time></trkpt>
<trkpt lat="49.1377203" lon="2.7041677"><ele></ele><time>2022-6-18T2:56:26Z</time></trkpt>
<trkpt lat="49.1376478" lon="2.7044418"><ele></ele><time>2022-6-18T2:56:29Z</time></trkpt>
<trkpt lat="49.1375723" lon="2.7047305"><ele></ele><time>2022-6-18T2:56:32Z</time></trkpt>
<trkpt lat="49.1375206" lon="2.7049943"><ele></ele><time>2022-6-18T2:56:35Z</time></trkpt>
<trkpt lat="49.1373978" lon="2.7052165"><ele></ele><time>2022-6-18T2:56:38Z</time></trkpt>
<trkpt lat="49.1372433" lon="2.7053828"><ele></ele><time>2022-6-18T2:56:41Z</time></trkpt>
<trkpt lat="49.1370524" lon="2.7053811"><ele></ele><time>2022-6-18T2:56:44Z</time></trkpt>
<trkpt lat="49.1368565" lon="2.7052831"><ele></ele><time>2022-6-18T2:56:47Z</time></trkpt>
<trkpt lat="49.1366971" lon="2.7050270"><ele></ele><time>2022-6-18T2:56:50Z</time></trkpt>
<trkpt lat="49.1365308" lon="2.7047716"><ele></ele><time>2022-6-18T2:56:53Z</time></trkpt>
<trkpt lat="49.1364999" lon="2.7050611"><ele></ele><time>2022-6-18T2:56:56Z</time></trkpt>
<trkpt lat="49.1365823" lon="2.7053601"><ele></ele><time>2022-6-18T2:56:59Z</time></trkpt>
<trkpt lat="49.1366518" lon="2.7056374"><ele></ele><time>2022-6-18T2:57:2Z</time></trkpt>
<trkpt lat="49.1367095" lon="2.7058992"><ele></ele><time>2022-6-18T2:57:5Z</time></trkpt>
<trkpt lat="49.1367731" lon="2.7061711"><ele></ele><time>2022-6-18T2:57:8Z</time></trkpt>
<trkpt lat="49.1368446" lon="2.7064350"><ele></ele><time>2022-6-18T2:57:11Z</time></trkpt>
<trkpt lat="49.1369161" lon="2.7067294"><ele></ele><time>2022-6-18T2:57:14Z</time></trkpt>
<trkpt lat="49.1369814" lon="2.7069906"><ele></ele><time>2022-6-18T2:57:17Z</time></trkpt>
<trkpt lat="49.1370581" lon="2.7072734"><ele></ele><time>2022-6-18T2:57:20Z</time></trkpt>
<trkpt lat="49.1371234" lon="2.7075354"><ele></ele><time>2022-6-18T2:57:23Z</time></trkpt>
<trkpt lat="49.1371942" lon="2.7078363"><ele></ele><time>2022-6-18T2:57:26Z</time></trkpt>
<trkpt lat="49.1372590" lon="2.7080992"><ele></ele><time>2022-6-18T2:57:29Z</time></trkpt>
<trkpt lat="49.1373294" lon="2.7083693"><ele></ele><time>2022-6-18T2:57:32Z</time></trkpt>
<trkpt lat="49.1373955" lon="2.7086354"><ele></ele><time>2022-6-18T2:57:35Z</time></trkpt>
<trkpt lat="49.1374641" lon="2.7088996"><ele></ele><time>2022-6-18T2:57:38Z</time></trkpt>
<trkpt lat="49.1375405" lon="2.7092002"><ele></ele><time>2022-6-18T2:57:41Z</time></trkpt>
<trkpt lat="49.1376148" lon="2.7094820"><ele></ele><time>2022-6-18T2:57:44Z</time></trkpt>
<trkpt lat="49.1376997" lon="2.7097838"><ele></ele><time>2022-6-18T2:57:47Z</time></trkpt>
<trkpt lat="49.1377774" lon="2.7100858"><ele></ele><time>2022-6-18T2:57:50Z</time></trkpt>
<trkpt lat="49.1378471" lon="2.7103742"><ele></ele><time>2022-6-18T2:57:53Z</time></trkpt>
<trkpt lat="49.1380097" lon="2.7104992"><ele></ele><time>2022-6-18T2:57:56Z</time></trkpt>
<trkpt lat="49.1380649" lon="2.7107726"><ele></ele><time>2022-6-18T2:57:59Z</time></trkpt>
<trkpt lat="49.1382211" lon="2.7109285"><ele></ele><time>2022-6-18T2:58:2Z</time></trkpt>
<trkpt lat="49.1383632" lon="2.7110975"><ele></ele><time>2022-6-18T2:58:5Z</time></trkpt>
<trkpt lat="49.1385170" lon="2.7112645"><ele></ele><time>2022-6-18T2:58:8Z</time></trkpt>
<trkpt lat="49.1386745" lon="2.7114403"><ele></ele><time>2022-6-18T2:58:11Z</time></trkpt>
<trkpt lat="49.1388097" lon="2.7116239"><ele></ele><time>2022-6-18T2:58:14Z</time></trkpt>
<trkpt lat="49.1389767" lon="2.7117879"><ele></ele><time>2022-6-18T2:58:17Z</time></trkpt>
<trkpt lat="49.1391386" lon="2.7119565"><ele></ele><time>2022-6-18T2:58:20Z</time></trkpt>
<trkpt lat="49.1393221" lon="2.7121206"><ele></ele><time>2022-6-18T2:58:23Z</time></trkpt>
<trkpt lat="49.1395040" lon="2.7122609"><ele></ele><time>2022-6-18T2:58:26Z</time></trkpt>
<trkpt lat="49.1396552" lon="2.7124488"><ele></ele><time>2022-6-18T2:58:29Z</time></trkpt>
<trkpt lat="49.1398017" lon="2.7126181"><ele></ele><time>2022-6-18T2:58:32Z</time></trkpt>
<trkpt lat="49.1399659" lon="2.7128003"><ele></ele><time>2022-6-18T2:58:35Z</time></trkpt>
<trkpt lat="49.1401161" lon="2.7130075"><ele></ele><time>2022-6-18T2:58:38Z</time></trkpt>
<trkpt lat="49.1402724" lon="2.7131653"><ele></ele><time>2022-6-18T2:58:41Z</time></trkpt>
<trkpt lat="49.1404517" lon="2.7133117"><ele></ele><time>2022-6-18T2:58:44Z</time></trkpt>
<trkpt lat="49.1406135" lon="2.7134651"><ele></ele><time>2022-6-18T2:58:47Z</time></trkpt>
<trkpt lat="49.1407961" lon="2.7136517"><ele></ele><time>2022-6-18T2:58:50Z</time></trkpt>
<trkpt lat="49.1409563" lon="2.7138284"><ele></ele><time>2022-6-18T2:58:53Z</time></trkpt>
<trkpt lat="49.1411244" lon="2.7140089"><ele></ele><time>2022-6-18T2:58:56Z</time></trkpt>
<trkpt lat="49.1412882" lon="2.7141797"><ele></ele><time>2022-6-18T2:58:59Z</time></trkpt>
<trkpt lat="49.1414574" lon="2.7143553"><ele></ele><time>2022-6-18T2:59:2Z</time></trkpt>
<trkpt lat="49.1416020" lon="2.7145413"><ele></ele><time>2022-6-18T2:59:5Z</time></trkpt>
<trkpt lat="49.1417608" lon="2.7143900"><ele></ele><time>2022-6-18T2:59:8Z</time></trkpt>
<trkpt lat="49.1418707" lon="2.7141492"><ele></ele><time>2022-6-18T2:59:11Z</time></trkpt>
<trkpt lat="49.1419818" lon="2.7138973"><ele></ele><time>2022-6-18T2:59:14Z</time></trkpt>
<trkpt lat="49.1421170" lon="2.7136052"><ele></ele><time>2022-6-18T2:59:17Z</time></trkpt>
<trkpt lat="49.1422057" lon="2.7132634"><ele></ele><time>2022-6-18T2:59:20Z</time></trkpt>
<trkpt lat="49.1423101" lon="2.7130183"><ele></ele><time>2022-6-18T2:59:23Z</time></trkpt>
<trkpt lat="49.1424457" lon="2.7127576"><ele></ele><time>2022-6-18T2:59:26Z</time></trkpt>
<trkpt lat="49.1425605" lon="2.7124999"><ele></ele><time>2022-6-18T2:59:29Z</time></trkpt>
<trkpt lat="49.1427110" lon="2.7121889"><ele></ele><time>2022-6-18T2:59:32Z</time></trkpt>
<trkpt lat="49.1428418" lon="2.7118811"><ele></ele><time>2022-6-18T2:59:35Z</time></trkpt>
<trkpt lat="49.1429597" lon="2.7115559"><ele></ele><time>2022-6-18T2:59:38Z</time></trkpt>
<trkpt lat="49.1431127" lon="2.7112361"><ele></ele><time>2022-6-18T2:59:41Z</time></trkpt>
<trkpt lat="49.1432372" lon="2.7109169"><ele></ele><time>2022-6-18T2:59:44Z</time></trkpt>
<trkpt lat="49.1434015" lon="2.7106036"><ele></ele><time>2022-6-18T2:59:47Z</time></trkpt>
<trkpt lat="49.1435820" lon="2.7103321"><ele></ele><time>2022-6-18T2:59:50Z</time></trkpt>
<trkpt lat="49.1437139" lon="2.7101393"><ele></ele><time>2022-6-18T2:59:53Z</time></trkpt>
<trkpt lat="49.1438552" lon="2.7098302"><ele></ele><time>2022-6-18T2:59:56Z</time></trkpt>
<trkpt lat="49.1440005" lon="2.7095100"><ele></ele><time>2022-6-18T2:59:59Z</time></trkpt>
<trkpt lat="49.1441298" lon="2.7092470"><ele></ele><time>2022-6-18T3:0:2Z</time></trkpt>
<trkpt lat="49.1442828" lon="2.7090010"><ele></ele><time>2022-6-18T3:0:5Z</time></trkpt>
<trkpt lat="49.1443902" lon="2.7086861"><ele></ele><time>2022-6-18T3:0:8Z</time></trkpt>
<trkpt lat="49.1445136" lon="2.7084455"><ele></ele><time>2022-6-18T3:0:11Z</time></trkpt>
<trkpt lat="49.1446328" lon="2.7081806"><ele></ele><time>2022-6-18T3:0:14Z</time></trkpt>
<trkpt lat="49.1447693" lon="2.7079553"><ele></ele><time>2022-6-18T3:0:17Z</time></trkpt>
<trkpt lat="49.1449151" lon="2.7081349"><ele></ele><time>2022-6-18T3:0:20Z</time></trkpt>
<trkpt lat="49.1450380" lon="2.7083920"><ele></ele><time>2022-6-18T3:0:23Z</time></trkpt>
<trkpt lat="49.1451746" lon="2.7086028"><ele></ele><time>2022-6-18T3:0:26Z</time></trkpt>
<trkpt lat="49.1452477" lon="2.7088813"><ele></ele><time>2022-6-18T3:0:29Z</time></trkpt>
<trkpt lat="49.1453495" lon="2.7091286"><ele></ele><time>2022-6-18T3:0:32Z</time></trkpt>
<trkpt lat="49.1454576" lon="2.7093691"><ele></ele><time>2022-6-18T3:0:35Z</time></trkpt>
<trkpt lat="49.1455948" lon="2.7095913"><ele></ele><time>2022-6-18T3:0:38Z</time></trkpt>
<trkpt lat="49.1457286" lon="2.7098302"><ele></ele><time>2022-6-18T3:0:41Z</time></trkpt>
<trkpt lat="49.1458621" lon="2.7100173"><ele></ele><time>2022-6-18T3:0:44Z</time></trkpt>
<trkpt lat="49.1460182" lon="2.7098571"><ele></ele><time>2022-6-18T3:0:47Z</time></trkpt>
<trkpt lat="49.1461631" lon="2.7096513"><ele></ele><time>2022-6-18T3:0:50Z</time></trkpt>
<trkpt lat="49.1463537" lon="2.7094590"><ele></ele><time>2022-6-18T3:0:53Z</time></trkpt>
<trkpt lat="49.1465105" lon="2.7092472"><ele></ele><time>2022-6-18T3:0:56Z</time></trkpt>
<trkpt lat="49.1467035" lon="2.7090839"><ele></ele><time>2022-6-18T3:0:59Z</time></trkpt>
<trkpt lat="49.1468674" lon="2.7089366"><ele></ele><time>2022-6-18T3:1:2Z</time></trkpt>
<trkpt lat="49.1470660" lon="2.7087983"><ele></ele><time>2022-6-18T3:1:5Z</time></trkpt>
<trkpt lat="49.1472481" lon="2.7087345"><ele></ele><time>2022-6-18T3:1:8Z</time></trkpt>
<trkpt lat="49.1474224" lon="2.7085772"><ele></ele><time>2022-6-18T3:1:11Z</time></trkpt>
<trkpt lat="49.1476010" lon="2.7084291"><ele></ele><time>2022-6-18T3:1:14Z</time></trkpt>
<trkpt lat="49.1477708" lon="2.7082729"><ele></ele><time>2022-6-18T3:1:17Z</time></trkpt>
<trkpt lat="49.1479360" lon="2.7081501"><ele></ele><time>2022-6-18T3:1:20Z</time></trkpt>
<trkpt lat="49.1481022" lon="2.7080409"><ele></ele><time>2022-6-18T3:1:23Z</time></trkpt>
<trkpt lat="49.1483266" lon="2.7079279"><ele></ele><time>2022-6-18T3:1:26Z</time></trkpt>
<trkpt lat="49.1484812" lon="2.7077868"><ele></ele><time>2022-6-18T3:1:29Z</time></trkpt>
<trkpt lat="49.1486611" lon="2.7076590"><ele></ele><time>2022-6-18T3:1:32Z</time></trkpt>
<trkpt lat="49.1488282" lon="2.7075302"><ele></ele><time>2022-6-18T3:1:35Z</time></trkpt>
<trkpt lat="49.1490149" lon="2.7074042"><ele></ele><time>2022-6-18T3:1:38Z</time></trkpt>
<trkpt lat="49.1491877" lon="2.7072702"><ele></ele><time>2022-6-18T3:1:41Z</time></trkpt>
<trkpt lat="49.1493826" lon="2.7071345"><ele></ele><time>2022-6-18T3:1:44Z</time></trkpt>
<trkpt lat="49.1495559" lon="2.7070015"><ele></ele><time>2022-6-18T3:1:47Z</time></trkpt>
<trkpt lat="49.1497167" lon="2.7068528"><ele></ele><time>2022-6-18T3:1:50Z</time></trkpt>
<trkpt lat="49.1499130" lon="2.7067112"><ele></ele><time>2022-6-18T3:1:53Z</time></trkpt>
<trkpt lat="49.1501123" lon="2.7065592"><ele></ele><time>2022-6-18T3:1:56Z</time></trkpt>
<trkpt lat="49.1502855" lon="2.7063899"><ele></ele><time>2022-6-18T3:1:59Z</time></trkpt>
<trkpt lat="49.1504736" lon="2.7062472"><ele></ele><time>2022-6-18T3:2:2Z</time></trkpt>
<trkpt lat="49.1506152" lon="2.7060644"><ele></ele><time>2022-6-18T3:2:5Z</time></trkpt>
<trkpt lat="49.1507936" lon="2.7058887"><ele></ele><time>2022-6-18T3:2:8Z</time></trkpt>
<trkpt lat="49.1509470" lon="2.7057279"><ele></ele><time>2022-6-18T3:2:11Z</time></trkpt>
<trkpt lat="49.1511117" lon="2.7056124"><ele></ele><time>2022-6-18T3:2:14Z</time></trkpt>
<trkpt lat="49.1512966" lon="2.7054764"><ele></ele><time>2022-6-18T3:2:17Z</time></trkpt>
<trkpt lat="49.1514578" lon="2.7053271"><ele></ele><time>2022-6-18T3:2:20Z</time></trkpt>
<trkpt lat="49.1516553" lon="2.7051677"><ele></ele><time>2022-6-18T3:2:23Z</time></trkpt>
<trkpt lat="49.1518206" lon="2.7050193"><ele></ele><time>2022-6-18T3:2:26Z</time></trkpt>
<trkpt lat="49.1519763" lon="2.7048542"><ele></ele><time>2022-6-18T3:2:29Z</time></trkpt>
<trkpt lat="49.1521642" lon="2.7047664"><ele></ele><time>2022-6-18T3:2:32Z</time></trkpt>
<trkpt lat="49.1523543" lon="2.7046593"><ele></ele><time>2022-6-18T3:2:35Z</time></trkpt>
<trkpt lat="49.1525364" lon="2.7045397"><ele></ele><time>2022-6-18T3:2:38Z</time></trkpt>
<trkpt lat="49.1527023" lon="2.7044266"><ele></ele><time>2022-6-18T3:2:41Z</time></trkpt>
<trkpt lat="49.1528768" lon="2.7042925"><ele></ele><time>2022-6-18T3:2:44Z</time></trkpt>
<trkpt lat="49.1530509" lon="2.7041688"><ele></ele><time>2022-6-18T3:2:47Z</time></trkpt>
<trkpt lat="49.1532253" lon="2.7039942"><ele></ele><time>2022-6-18T3:2:50Z</time></trkpt>
<trkpt lat="49.1533898" lon="2.7038709"><ele></ele><time>2022-6-18T3:2:53Z</time></trkpt>
<trkpt lat="49.1535723" lon="2.7037747"><ele></ele><time>2022-6-18T3:2:56Z</time></trkpt>
<trkpt lat="49.1537434" lon="2.7036568"><ele></ele><time>2022-6-18T3:2:59Z</time></trkpt>
<trkpt lat="49.1539040" lon="2.7035323"><ele></ele><time>2022-6-18T3:3:2Z</time></trkpt>
<trkpt lat="49.1540888" lon="2.7033821"><ele></ele><time>2022-6-18T3:3:5Z</time></trkpt>
<trkpt lat="49.1542588" lon="2.7032506"><ele></ele><time>2022-6-18T3:3:8Z</time></trkpt>
<trkpt lat="49.1544372" lon="2.7030891"><ele></ele><time>2022-6-18T3:3:11Z</time></trkpt>
<trkpt lat="49.1546015" lon="2.7029583"><ele></ele><time>2022-6-18T3:3:14Z</time></trkpt>
<trkpt lat="49.1547821" lon="2.7028711"><ele></ele><time>2022-6-18T3:3:17Z</time></trkpt>
<trkpt lat="49.1549682" lon="2.7027646"><ele></ele><time>2022-6-18T3:3:20Z</time></trkpt>
<trkpt lat="49.1551414" lon="2.7026508"><ele></ele><time>2022-6-18T3:3:23Z</time></trkpt>
<trkpt lat="49.1553232" lon="2.7025362"><ele></ele><time>2022-6-18T3:3:26Z</time></trkpt>
<trkpt lat="49.1554667" lon="2.7023571"><ele></ele><time>2022-6-18T3:3:29Z</time></trkpt>
<trkpt lat="49.1556368" lon="2.7022315"><ele></ele><time>2022-6-18T3:3:32Z</time></trkpt>
<trkpt lat="49.1558036" lon="2.7021203"><ele></ele><time>2022-6-18T3:3:35Z</time></trkpt>
<trkpt lat="49.1560251" lon="2.7019872"><ele></ele><time>2022-6-18T3:3:38Z</time></trkpt>
<trkpt lat="49.1562046" lon="2.7018794"><ele></ele><time>2022-6-18T3:3:41Z</time></trkpt>
<trkpt lat="49.1563702" lon="2.7017234"><ele></ele><time>2022-6-18T3:3:44Z</time></trkpt>
<trkpt lat="49.1565387" lon="2.7015897"><ele></ele><time>2022-6-18T3:3:47Z</time></trkpt>
<trkpt lat="49.1568665" lon="2.7013233"><ele></ele><time>2022-6-18T3:3:50Z</time></trkpt>
<trkpt lat="49.1570465" lon="2.7011875"><ele></ele><time>2022-6-18T3:3:53Z</time></trkpt>
<trkpt lat="49.1572167" lon="2.7010698"><ele></ele><time>2022-6-18T3:3:56Z</time></trkpt>
<trkpt lat="49.1573918" lon="2.7009232"><ele></ele><time>2022-6-18T3:3:59Z</time></trkpt>
<trkpt lat="49.1575718" lon="2.7008005"><ele></ele><time>2022-6-18T3:4:2Z</time></trkpt>
<trkpt lat="49.1577499" lon="2.7006394"><ele></ele><time>2022-6-18T3:4:5Z</time></trkpt>
<trkpt lat="49.1579372" lon="2.7005341"><ele></ele><time>2022-6-18T3:4:8Z</time></trkpt>
<trkpt lat="49.1581029" lon="2.7003994"><ele></ele><time>2022-6-18T3:4:11Z</time></trkpt>
<trkpt lat="49.1582621" lon="2.7002581"><ele></ele><time>2022-6-18T3:4:14Z</time></trkpt>
<trkpt lat="49.1584375" lon="2.7001127"><ele></ele><time>2022-6-18T3:4:17Z</time></trkpt>
<trkpt lat="49.1586346" lon="2.6999929"><ele></ele><time>2022-6-18T3:4:20Z</time></trkpt>
<trkpt lat="49.1588113" lon="2.6998578"><ele></ele><time>2022-6-18T3:4:23Z</time></trkpt>
<trkpt lat="49.1589787" lon="2.6997413"><ele></ele><time>2022-6-18T3:4:26Z</time></trkpt>
<trkpt lat="49.1591625" lon="2.6996057"><ele></ele><time>2022-6-18T3:4:29Z</time></trkpt>
<trkpt lat="49.1593353" lon="2.6994564"><ele></ele><time>2022-6-18T3:4:32Z</time></trkpt>
<trkpt lat="49.1594178" lon="2.6991765"><ele></ele><time>2022-6-18T3:4:35Z</time></trkpt>
<trkpt lat="49.1593866" lon="2.6989043"><ele></ele><time>2022-6-18T3:4:38Z</time></trkpt>
<trkpt lat="49.1593492" lon="2.6985961"><ele></ele><time>2022-6-18T3:4:41Z</time></trkpt>
<trkpt lat="49.1593290" lon="2.6982953"><ele></ele><time>2022-6-18T3:4:44Z</time></trkpt>
<trkpt lat="49.1592838" lon="2.6979879"><ele></ele><time>2022-6-18T3:4:47Z</time></trkpt>
<trkpt lat="49.1592454" lon="2.6977114"><ele></ele><time>2022-6-18T3:4:50Z</time></trkpt>
<trkpt lat="49.1592091" lon="2.6974417"><ele></ele><time>2022-6-18T3:4:53Z</time></trkpt>
<trkpt lat="49.1591494" lon="2.6971767"><ele></ele><time>2022-6-18T3:4:56Z</time></trkpt>
<trkpt lat="49.1591389" lon="2.6968734"><ele></ele><time>2022-6-18T3:4:59Z</time></trkpt>
<trkpt lat="49.1590858" lon="2.6965776"><ele></ele><time>2022-6-18T3:5:2Z</time></trkpt>
<trkpt lat="49.1590470" lon="2.6962742"><ele></ele><time>2022-6-18T3:5:5Z</time></trkpt>
<trkpt lat="49.1590256" lon="2.6959729"><ele></ele><time>2022-6-18T3:5:8Z</time></trkpt>
<trkpt lat="49.1590005" lon="2.6956742"><ele></ele><time>2022-6-18T3:5:11Z</time></trkpt>
<trkpt lat="49.1589504" lon="2.6954048"><ele></ele><time>2022-6-18T3:5:14Z</time></trkpt>
<trkpt lat="49.1589413" lon="2.6951181"><ele></ele><time>2022-6-18T3:5:17Z</time></trkpt>
<trkpt lat="49.1589193" lon="2.6948445"><ele></ele><time>2022-6-18T3:5:20Z</time></trkpt>
<trkpt lat="49.1588724" lon="2.6945156"><ele></ele><time>2022-6-18T3:5:23Z</time></trkpt>
<trkpt lat="49.1588089" lon="2.6942059"><ele></ele><time>2022-6-18T3:5:26Z</time></trkpt>
<trkpt lat="49.1587546" lon="2.6939277"><ele></ele><time>2022-6-18T3:5:29Z</time></trkpt>
<trkpt lat="49.1587224" lon="2.6936542"><ele></ele><time>2022-6-18T3:5:32Z</time></trkpt>
<trkpt lat="49.1586913" lon="2.6933332"><ele></ele><time>2022-6-18T3:5:35Z</time></trkpt>
<trkpt lat="49.1586668" lon="2.6930219"><ele></ele><time>2022-6-18T3:5:38Z</time></trkpt>
<trkpt lat="49.1586302" lon="2.6927132"><ele></ele><time>2022-6-18T3:5:41Z</time></trkpt>
<trkpt lat="49.1586046" lon="2.6924342"><ele></ele><time>2022-6-18T3:5:44Z</time></trkpt>
<trkpt lat="49.1585684" lon="2.6921308"><ele></ele><time>2022-6-18T3:5:47Z</time></trkpt>
<trkpt lat="49.1585353" lon="2.6918279"><ele></ele><time>2022-6-18T3:5:50Z</time></trkpt>
<trkpt lat="49.1585028" lon="2.6915476"><ele></ele><time>2022-6-18T3:5:53Z</time></trkpt>
<trkpt lat="49.1584484" lon="2.6912476"><ele></ele><time>2022-6-18T3:5:56Z</time></trkpt>
<trkpt lat="49.1584431" lon="2.6909671"><ele></ele><time>2022-6-18T3:5:59Z</time></trkpt>
<trkpt lat="49.1583279" lon="2.6907427"><ele></ele><time>2022-6-18T3:6:2Z</time></trkpt>
<trkpt lat="49.1581433" lon="2.6906083"><ele></ele><time>2022-6-18T3:6:5Z</time></trkpt>
<trkpt lat="49.1579671" lon="2.6905005"><ele></ele><time>2022-6-18T3:6:8Z</time></trkpt>
<trkpt lat="49.1577766" lon="2.6903867"><ele></ele><time>2022-6-18T3:6:11Z</time></trkpt>
<trkpt lat="49.1575883" lon="2.6902930"><ele></ele><time>2022-6-18T3:6:14Z</time></trkpt>
<trkpt lat="49.1573871" lon="2.6902019"><ele></ele><time>2022-6-18T3:6:17Z</time></trkpt>
<trkpt lat="49.1572150" lon="2.6901122"><ele></ele><time>2022-6-18T3:6:20Z</time></trkpt>
<trkpt lat="49.1570290" lon="2.6900308"><ele></ele><time>2022-6-18T3:6:23Z</time></trkpt>
<trkpt lat="49.1568413" lon="2.6899425"><ele></ele><time>2022-6-18T3:6:26Z</time></trkpt>
<trkpt lat="49.1566612" lon="2.6898556"><ele></ele><time>2022-6-18T3:6:29Z</time></trkpt>
<trkpt lat="49.1564619" lon="2.6897469"><ele></ele><time>2022-6-18T3:6:32Z</time></trkpt>
<trkpt lat="49.1562706" lon="2.6896151"><ele></ele><time>2022-6-18T3:6:35Z</time></trkpt>
<trkpt lat="49.1561081" lon="2.6894893"><ele></ele><time>2022-6-18T3:6:38Z</time></trkpt>
<trkpt lat="49.1559749" lon="2.6892921"><ele></ele><time>2022-6-18T3:6:41Z</time></trkpt>
<trkpt lat="49.1558392" lon="2.6890740"><ele></ele><time>2022-6-18T3:6:44Z</time></trkpt>
<trkpt lat="49.1557176" lon="2.6888617"><ele></ele><time>2022-6-18T3:6:47Z</time></trkpt>
<trkpt lat="49.1557563" lon="2.6885656"><ele></ele><time>2022-6-18T3:6:50Z</time></trkpt>
<trkpt lat="49.1558388" lon="2.6883111"><ele></ele><time>2022-6-18T3:6:53Z</time></trkpt>
<trkpt lat="49.1559316" lon="2.6880441"><ele></ele><time>2022-6-18T3:6:56Z</time></trkpt>
<trkpt lat="49.1560110" lon="2.6877650"><ele></ele><time>2022-6-18T3:6:59Z</time></trkpt>
<trkpt lat="49.1560959" lon="2.6875006"><ele></ele><time>2022-6-18T3:7:2Z</time></trkpt>
<trkpt lat="49.1561738" lon="2.6872409"><ele></ele><time>2022-6-18T3:7:5Z</time></trkpt>
<trkpt lat="49.1562630" lon="2.6869502"><ele></ele><time>2022-6-18T3:7:8Z</time></trkpt>
<trkpt lat="49.1563456" lon="2.6866647"><ele></ele><time>2022-6-18T3:7:11Z</time></trkpt>
<trkpt lat="49.1564239" lon="2.6863880"><ele></ele><time>2022-6-18T3:7:14Z</time></trkpt>
<trkpt lat="49.1565004" lon="2.6861265"><ele></ele><time>2022-6-18T3:7:17Z</time></trkpt>
<trkpt lat="49.1565742" lon="2.6858502"><ele></ele><time>2022-6-18T3:7:20Z</time></trkpt>
<trkpt lat="49.1566409" lon="2.6855860"><ele></ele><time>2022-6-18T3:7:23Z</time></trkpt>
<trkpt lat="49.1567208" lon="2.6853104"><ele></ele><time>2022-6-18T3:7:26Z</time></trkpt>
<trkpt lat="49.1567981" lon="2.6850551"><ele></ele><time>2022-6-18T3:7:29Z</time></trkpt>
<trkpt lat="49.1568707" lon="2.6847830"><ele></ele><time>2022-6-18T3:7:32Z</time></trkpt>
<trkpt lat="49.1569276" lon="2.6844765"><ele></ele><time>2022-6-18T3:7:35Z</time></trkpt>
<trkpt lat="49.1569761" lon="2.6841530"><ele></ele><time>2022-6-18T3:7:38Z</time></trkpt>
<trkpt lat="49.1569767" lon="2.6838308"><ele></ele><time>2022-6-18T3:7:41Z</time></trkpt>
<trkpt lat="49.1569538" lon="2.6835098"><ele></ele><time>2022-6-18T3:7:44Z</time></trkpt>
<trkpt lat="49.1569454" lon="2.6832284"><ele></ele><time>2022-6-18T3:7:47Z</time></trkpt>
<trkpt lat="49.1569223" lon="2.6829099"><ele></ele><time>2022-6-18T3:7:50Z</time></trkpt>
<trkpt lat="49.1569021" lon="2.6826327"><ele></ele><time>2022-6-18T3:7:53Z</time></trkpt>
<trkpt lat="49.1568371" lon="2.6823736"><ele></ele><time>2022-6-18T3:7:56Z</time></trkpt>
<trkpt lat="49.1566569" lon="2.6823130"><ele></ele><time>2022-6-18T3:7:59Z</time></trkpt>
<trkpt lat="49.1564723" lon="2.6823399"><ele></ele><time>2022-6-18T3:8:2Z</time></trkpt>
<trkpt lat="49.1562707" lon="2.6823575"><ele></ele><time>2022-6-18T3:8:5Z</time></trkpt>
<trkpt lat="49.1560666" lon="2.6823669"><ele></ele><time>2022-6-18T3:8:8Z</time></trkpt>
<trkpt lat="49.1558588" lon="2.6823874"><ele></ele><time>2022-6-18T3:8:11Z</time></trkpt>
<trkpt lat="49.1556545" lon="2.6824065"><ele></ele><time>2022-6-18T3:8:14Z</time></trkpt>
<trkpt lat="49.1554710" lon="2.6824324"><ele></ele><time>2022-6-18T3:8:17Z</time></trkpt>
<trkpt lat="49.1552757" lon="2.6824407"><ele></ele><time>2022-6-18T3:8:20Z</time></trkpt>
<trkpt lat="49.1550765" lon="2.6824594"><ele></ele><time>2022-6-18T3:8:23Z</time></trkpt>
<trkpt lat="49.1548713" lon="2.6825104"><ele></ele><time>2022-6-18T3:8:26Z</time></trkpt>
<trkpt lat="49.1546656" lon="2.6825847"><ele></ele><time>2022-6-18T3:8:29Z</time></trkpt>
<trkpt lat="49.1544778" lon="2.6826289"><ele></ele><time>2022-6-18T3:8:32Z</time></trkpt>
<trkpt lat="49.1542868" lon="2.6826541"><ele></ele><time>2022-6-18T3:8:35Z</time></trkpt>
<trkpt lat="49.1541048" lon="2.6827018"><ele></ele><time>2022-6-18T3:8:38Z</time></trkpt>
<trkpt lat="49.1539162" lon="2.6827531"><ele></ele><time>2022-6-18T3:8:41Z</time></trkpt>
<trkpt lat="49.1537131" lon="2.6828132"><ele></ele><time>2022-6-18T3:8:44Z</time></trkpt>
<trkpt lat="49.1535085" lon="2.6828449"><ele></ele><time>2022-6-18T3:8:47Z</time></trkpt>
<trkpt lat="49.1533168" lon="2.6828839"><ele></ele><time>2022-6-18T3:8:50Z</time></trkpt>
<trkpt lat="49.1531293" lon="2.6829114"><ele></ele><time>2022-6-18T3:8:53Z</time></trkpt>
<trkpt lat="49.1529423" lon="2.6829251"><ele></ele><time>2022-6-18T3:8:56Z</time></trkpt>
<trkpt lat="49.1527474" lon="2.6829371"><ele></ele><time>2022-6-18T3:8:59Z</time></trkpt>
<trkpt lat="49.1525402" lon="2.6829412"><ele></ele><time>2022-6-18T3:9:2Z</time></trkpt>
<trkpt lat="49.1523284" lon="2.6829400"><ele></ele><time>2022-6-18T3:9:5Z</time></trkpt>
<trkpt lat="49.1521121" lon="2.6829493"><ele></ele><time>2022-6-18T3:9:8Z</time></trkpt>
<trkpt lat="49.1519135" lon="2.6829381"><ele></ele><time>2022-6-18T3:9:11Z</time></trkpt>
<trkpt lat="49.1517197" lon="2.6829373"><ele></ele><time>2022-6-18T3:9:14Z</time></trkpt>
<trkpt lat="49.1515291" lon="2.6829422"><ele></ele><time>2022-6-18T3:9:17Z</time></trkpt>
<trkpt lat="49.1513415" lon="2.6829429"><ele></ele><time>2022-6-18T3:9:20Z</time></trkpt>
<trkpt lat="49.1511455" lon="2.6829386"><ele></ele><time>2022-6-18T3:9:23Z</time></trkpt>
<trkpt lat="49.1509325" lon="2.6829389"><ele></ele><time>2022-6-18T3:9:26Z</time></trkpt>
<trkpt lat="49.1507488" lon="2.6829359"><ele></ele><time>2022-6-18T3:9:29Z</time></trkpt>
<trkpt lat="49.1505405" lon="2.6829287"><ele></ele><time>2022-6-18T3:9:32Z</time></trkpt>
<trkpt lat="49.1503243" lon="2.6829230"><ele></ele><time>2022-6-18T3:9:35Z</time></trkpt>
<trkpt lat="49.1501118" lon="2.6829108"><ele></ele><time>2022-6-18T3:9:38Z</time></trkpt>
<trkpt lat="49.1498999" lon="2.6829117"><ele></ele><time>2022-6-18T3:9:41Z</time></trkpt>
<trkpt lat="49.1497118" lon="2.6828997"><ele></ele><time>2022-6-18T3:9:44Z</time></trkpt>
<trkpt lat="49.1495204" lon="2.6828821"><ele></ele><time>2022-6-18T3:9:47Z</time></trkpt>
<trkpt lat="49.1493302" lon="2.6828694"><ele></ele><time>2022-6-18T3:9:50Z</time></trkpt>
<trkpt lat="49.1491355" lon="2.6828561"><ele></ele><time>2022-6-18T3:9:53Z</time></trkpt>
<trkpt lat="49.1489534" lon="2.6828653"><ele></ele><time>2022-6-18T3:9:56Z</time></trkpt>
<trkpt lat="49.1487474" lon="2.6828687"><ele></ele><time>2022-6-18T3:9:59Z</time></trkpt>
<trkpt lat="49.1485533" lon="2.6828783"><ele></ele><time>2022-6-18T3:10:2Z</time></trkpt>
<trkpt lat="49.1483721" lon="2.6828851"><ele></ele><time>2022-6-18T3:10:5Z</time></trkpt>
<trkpt lat="49.1481681" lon="2.6828891"><ele></ele><time>2022-6-18T3:10:8Z</time></trkpt>
<trkpt lat="49.1479614" lon="2.6828854"><ele></ele><time>2022-6-18T3:10:11Z</time></trkpt>
<trkpt lat="49.1478587" lon="2.6826454"><ele></ele><time>2022-6-18T3:10:14Z</time></trkpt>
<trkpt lat="49.1477870" lon="2.6823754"><ele></ele><time>2022-6-18T3:10:17Z</time></trkpt>
<trkpt lat="49.1475862" lon="2.6824864"><ele></ele><time>2022-6-18T3:10:20Z</time></trkpt>
<trkpt lat="49.1474080" lon="2.6826523"><ele></ele><time>2022-6-18T3:10:23Z</time></trkpt>
<trkpt lat="49.1472576" lon="2.6828095"><ele></ele><time>2022-6-18T3:10:26Z</time></trkpt>
<trkpt lat="49.1470771" lon="2.6829041"><ele></ele><time>2022-6-18T3:10:29Z</time></trkpt>
<trkpt lat="49.1469505" lon="2.6831419"><ele></ele><time>2022-6-18T3:10:32Z</time></trkpt>
<trkpt lat="49.1468125" lon="2.6833275"><ele></ele><time>2022-6-18T3:10:35Z</time></trkpt>
<trkpt lat="49.1466627" lon="2.6834935"><ele></ele><time>2022-6-18T3:10:38Z</time></trkpt>
<trkpt lat="49.1465314" lon="2.6836971"><ele></ele><time>2022-6-18T3:10:41Z</time></trkpt>
<trkpt lat="49.1464121" lon="2.6839177"><ele></ele><time>2022-6-18T3:10:44Z</time></trkpt>
<trkpt lat="49.1462915" lon="2.6841572"><ele></ele><time>2022-6-18T3:10:47Z</time></trkpt>
<trkpt lat="49.1462179" lon="2.6844131"><ele></ele><time>2022-6-18T3:10:50Z</time></trkpt>
<trkpt lat="49.1462197" lon="2.6847111"><ele></ele><time>2022-6-18T3:10:53Z</time></trkpt>
<trkpt lat="49.1462184" lon="2.6850094"><ele></ele><time>2022-6-18T3:10:56Z</time></trkpt>
<trkpt lat="49.1462601" lon="2.6853356"><ele></ele><time>2022-6-18T3:10:59Z</time></trkpt>
<trkpt lat="49.1462504" lon="2.6856591"><ele></ele><time>2022-6-18T3:11:2Z</time></trkpt>
<trkpt lat="49.1462042" lon="2.6859716"><ele></ele><time>2022-6-18T3:11:5Z</time></trkpt>
<trkpt lat="49.1461273" lon="2.6862247"><ele></ele><time>2022-6-18T3:11:8Z</time></trkpt>
<trkpt lat="49.1459780" lon="2.6864325"><ele></ele><time>2022-6-18T3:11:11Z</time></trkpt>
<trkpt lat="49.1458319" lon="2.6866302"><ele></ele><time>2022-6-18T3:11:14Z</time></trkpt>
<trkpt lat="49.1456764" lon="2.6868276"><ele></ele><time>2022-6-18T3:11:17Z</time></trkpt>
<trkpt lat="49.1455338" lon="2.6870175"><ele></ele><time>2022-6-18T3:11:20Z</time></trkpt>
<trkpt lat="49.1453991" lon="2.6872096"><ele></ele><time>2022-6-18T3:11:23Z</time></trkpt>
<trkpt lat="49.1452590" lon="2.6874347"><ele></ele><time>2022-6-18T3:11:26Z</time></trkpt>
<trkpt lat="49.1452309" lon="2.6877440"><ele></ele><time>2022-6-18T3:11:29Z</time></trkpt>
<trkpt lat="49.1452884" lon="2.6880062"><ele></ele><time>2022-6-18T3:11:32Z</time></trkpt>
<trkpt lat="49.1453827" lon="2.6882671"><ele></ele><time>2022-6-18T3:11:35Z</time></trkpt>
<trkpt lat="49.1454735" lon="2.6885255"><ele></ele><time>2022-6-18T3:11:38Z</time></trkpt>
<trkpt lat="49.1455746" lon="2.6887861"><ele></ele><time>2022-6-18T3:11:41Z</time></trkpt>
<trkpt lat="49.1456636" lon="2.6890547"><ele></ele><time>2022-6-18T3:11:44Z</time></trkpt>
<trkpt lat="49.1457643" lon="2.6893456"><ele></ele><time>2022-6-18T3:11:47Z</time></trkpt>
<trkpt lat="49.1458325" lon="2.6896040"><ele></ele><time>2022-6-18T3:11:50Z</time></trkpt>
<trkpt lat="49.1458842" lon="2.6898864"><ele></ele><time>2022-6-18T3:11:53Z</time></trkpt>
<trkpt lat="49.1458976" lon="2.6901829"><ele></ele><time>2022-6-18T3:11:56Z</time></trkpt>
<trkpt lat="49.1458790" lon="2.6904957"><ele></ele><time>2022-6-18T3:11:59Z</time></trkpt>
<trkpt lat="49.1457335" lon="2.6907389"><ele></ele><time>2022-6-18T3:12:2Z</time></trkpt>
<trkpt lat="49.1455717" lon="2.6908832"><ele></ele><time>2022-6-18T3:12:5Z</time></trkpt>
<trkpt lat="49.1454052" lon="2.6910338"><ele></ele><time>2022-6-18T3:12:8Z</time></trkpt>
<trkpt lat="49.1452442" lon="2.6912245"><ele></ele><time>2022-6-18T3:12:11Z</time></trkpt>
<trkpt lat="49.1450668" lon="2.6913966"><ele></ele><time>2022-6-18T3:12:14Z</time></trkpt>
<trkpt lat="49.1448864" lon="2.6915961"><ele></ele><time>2022-6-18T3:12:17Z</time></trkpt>
<trkpt lat="49.1447290" lon="2.6917431"><ele></ele><time>2022-6-18T3:12:20Z</time></trkpt>
<trkpt lat="49.1445420" lon="2.6918455"><ele></ele><time>2022-6-18T3:12:23Z</time></trkpt>
<trkpt lat="49.1443536" lon="2.6919440"><ele></ele><time>2022-6-18T3:12:26Z</time></trkpt>
<trkpt lat="49.1441573" lon="2.6920162"><ele></ele><time>2022-6-18T3:12:29Z</time></trkpt>
<trkpt lat="49.1439601" lon="2.6920662"><ele></ele><time>2022-6-18T3:12:32Z</time></trkpt>
<trkpt lat="49.1437397" lon="2.6921022"><ele></ele><time>2022-6-18T3:12:35Z</time></trkpt>
<trkpt lat="49.1435260" lon="2.6920955"><ele></ele><time>2022-6-18T3:12:38Z</time></trkpt>
<trkpt lat="49.1433254" lon="2.6921296"><ele></ele><time>2022-6-18T3:12:41Z</time></trkpt>
<trkpt lat="49.1431002" lon="2.6920959"><ele></ele><time>2022-6-18T3:12:44Z</time></trkpt>
<trkpt lat="49.1428999" lon="2.6921777"><ele></ele><time>2022-6-18T3:12:47Z</time></trkpt>
<trkpt lat="49.1427140" lon="2.6922740"><ele></ele><time>2022-6-18T3:12:50Z</time></trkpt>
<trkpt lat="49.1427636" lon="2.6919957"><ele></ele><time>2022-6-18T3:12:53Z</time></trkpt>
<trkpt lat="49.1427007" lon="2.6917296"><ele></ele><time>2022-6-18T3:12:56Z</time></trkpt>
<trkpt lat="49.1426286" lon="2.6914310"><ele></ele><time>2022-6-18T3:12:59Z</time></trkpt>
<trkpt lat="49.1425580" lon="2.6911428"><ele></ele><time>2022-6-18T3:13:2Z</time></trkpt>
<trkpt lat="49.1423821" lon="2.6910021"><ele></ele><time>2022-6-18T3:13:5Z</time></trkpt>
<trkpt lat="49.1422086" lon="2.6908504"><ele></ele><time>2022-6-18T3:13:8Z</time></trkpt>
<trkpt lat="49.1422247" lon="2.6905254"><ele></ele><time>2022-6-18T3:13:11Z</time></trkpt>
<trkpt lat="49.1421926" lon="2.6902521"><ele></ele><time>2022-6-18T3:13:14Z</time></trkpt>
<trkpt lat="49.1420870" lon="2.6899987"><ele></ele><time>2022-6-18T3:13:17Z</time></trkpt>
<trkpt lat="49.1420468" lon="2.6896944"><ele></ele><time>2022-6-18T3:13:20Z</time></trkpt>
<trkpt lat="49.1420439" lon="2.6893651"><ele></ele><time>2022-6-18T3:13:23Z</time></trkpt>
<trkpt lat="49.1419374" lon="2.6890911"><ele></ele><time>2022-6-18T3:13:26Z</time></trkpt>
<trkpt lat="49.1418127" lon="2.6888384"><ele></ele><time>2022-6-18T3:13:29Z</time></trkpt>
<trkpt lat="49.1416981" lon="2.6885842"><ele></ele><time>2022-6-18T3:13:32Z</time></trkpt>
<trkpt lat="49.1415539" lon="2.6883610"><ele></ele><time>2022-6-18T3:13:35Z</time></trkpt>
<trkpt lat="49.1414424" lon="2.6881159"><ele></ele><time>2022-6-18T3:13:38Z</time></trkpt>
<trkpt lat="49.1415478" lon="2.6878910"><ele></ele><time>2022-6-18T3:13:41Z</time></trkpt>
<trkpt lat="49.1416190" lon="2.6875979"><ele></ele><time>2022-6-18T3:13:44Z</time></trkpt>
<trkpt lat="49.1417002" lon="2.6873170"><ele></ele><time>2022-6-18T3:13:47Z</time></trkpt>
<trkpt lat="49.1418605" lon="2.6870467"><ele></ele><time>2022-6-18T3:13:50Z</time></trkpt>
<trkpt lat="49.1419260" lon="2.6867442"><ele></ele><time>2022-6-18T3:13:53Z</time></trkpt>
<trkpt lat="49.1420193" lon="2.6864552"><ele></ele><time>2022-6-18T3:13:56Z</time></trkpt>
<trkpt lat="49.1420950" lon="2.6861758"><ele></ele><time>2022-6-18T3:13:59Z</time></trkpt>
<trkpt lat="49.1420584" lon="2.6858767"><ele></ele><time>2022-6-18T3:14:2Z</time></trkpt>
<trkpt lat="49.1422372" lon="2.6857382"><ele></ele><time>2022-6-18T3:14:5Z</time></trkpt>
<trkpt lat="49.1424229" lon="2.6857620"><ele></ele><time>2022-6-18T3:14:8Z</time></trkpt>
<trkpt lat="49.1426239" lon="2.6857666"><ele></ele><time>2022-6-18T3:14:11Z</time></trkpt>
<trkpt lat="49.1428245" lon="2.6856588"><ele></ele><time>2022-6-18T3:14:14Z</time></trkpt>
<trkpt lat="49.1429907" lon="2.6855140"><ele></ele><time>2022-6-18T3:14:17Z</time></trkpt>
<trkpt lat="49.1431242" lon="2.6852805"><ele></ele><time>2022-6-18T3:14:20Z</time></trkpt>
<trkpt lat="49.1432421" lon="2.6850723"><ele></ele><time>2022-6-18T3:14:23Z</time></trkpt>
<trkpt lat="49.1434274" lon="2.6850077"><ele></ele><time>2022-6-18T3:14:26Z</time></trkpt>
<trkpt lat="49.1435952" lon="2.6851220"><ele></ele><time>2022-6-18T3:14:29Z</time></trkpt>
<trkpt lat="49.1437511" lon="2.6852813"><ele></ele><time>2022-6-18T3:14:32Z</time></trkpt>
<trkpt lat="49.1438781" lon="2.6854834"><ele></ele><time>2022-6-18T3:14:35Z</time></trkpt>
<trkpt lat="49.1440162" lon="2.6856791"><ele></ele><time>2022-6-18T3:14:38Z</time></trkpt>
<trkpt lat="49.1441331" lon="2.6859081"><ele></ele><time>2022-6-18T3:14:41Z</time></trkpt>
<trkpt lat="49.1442584" lon="2.6861560"><ele></ele><time>2022-6-18T3:14:44Z</time></trkpt>
<trkpt lat="49.1443973" lon="2.6863580"><ele></ele><time>2022-6-18T3:14:47Z</time></trkpt>
<trkpt lat="49.1446119" lon="2.6863685"><ele></ele><time>2022-6-18T3:14:50Z</time></trkpt>
<trkpt lat="49.1447839" lon="2.6864516"><ele></ele><time>2022-6-18T3:14:53Z</time></trkpt>
<trkpt lat="49.1447518" lon="2.6861799"><ele></ele><time>2022-6-18T3:14:56Z</time></trkpt>
<trkpt lat="49.1446818" lon="2.6859204"><ele></ele><time>2022-6-18T3:14:59Z</time></trkpt>
<trkpt lat="49.1447495" lon="2.6861869"><ele></ele><time>2022-6-18T3:15:2Z</time></trkpt>
<trkpt lat="49.1446796" lon="2.6859146"><ele></ele><time>2022-6-18T3:15:5Z</time></trkpt>
<trkpt lat="49.1445740" lon="2.6856898"><ele></ele><time>2022-6-18T3:15:8Z</time></trkpt>
<trkpt lat="49.1444029" lon="2.6856044"><ele></ele><time>2022-6-18T3:15:11Z</time></trkpt>
<trkpt lat="49.1442508" lon="2.6854496"><ele></ele><time>2022-6-18T3:15:14Z</time></trkpt>
<trkpt lat="49.1441265" lon="2.6851954"><ele></ele><time>2022-6-18T3:15:17Z</time></trkpt>
<trkpt lat="49.1439814" lon="2.6850180"><ele></ele><time>2022-6-18T3:15:20Z</time></trkpt>
<trkpt lat="49.1438622" lon="2.6847780"><ele></ele><time>2022-6-18T3:15:23Z</time></trkpt>
<trkpt lat="49.1437135" lon="2.6845629"><ele></ele><time>2022-6-18T3:15:26Z</time></trkpt>
<trkpt lat="49.1435226" lon="2.6845035"><ele></ele><time>2022-6-18T3:15:29Z</time></trkpt>
<trkpt lat="49.1433290" lon="2.6845308"><ele></ele><time>2022-6-18T3:15:32Z</time></trkpt>
<trkpt lat="49.1431352" lon="2.6844095"><ele></ele><time>2022-6-18T3:15:35Z</time></trkpt>
<trkpt lat="49.1429658" lon="2.6843098"><ele></ele><time>2022-6-18T3:15:38Z</time></trkpt>
<trkpt lat="49.1427619" lon="2.6842636"><ele></ele><time>2022-6-18T3:15:41Z</time></trkpt>
<trkpt lat="49.1425654" lon="2.6842628"><ele></ele><time>2022-6-18T3:15:44Z</time></trkpt>
<trkpt lat="49.1423785" lon="2.6842092"><ele></ele><time>2022-6-18T3:15:47Z</time></trkpt>
<trkpt lat="49.1422400" lon="2.6840249"><ele></ele><time>2022-6-18T3:15:50Z</time></trkpt>
<trkpt lat="49.1420674" lon="2.6839272"><ele></ele><time>2022-6-18T3:15:53Z</time></trkpt>
<trkpt lat="49.1420122" lon="2.6836577"><ele></ele><time>2022-6-18T3:15:56Z</time></trkpt>
<trkpt lat="49.1418225" lon="2.6836781"><ele></ele><time>2022-6-18T3:15:59Z</time></trkpt>
<trkpt lat="49.1416437" lon="2.6838012"><ele></ele><time>2022-6-18T3:16:2Z</time></trkpt>
<trkpt lat="49.1414590" lon="2.6838997"><ele></ele><time>2022-6-18T3:16:5Z</time></trkpt>
<trkpt lat="49.1413175" lon="2.6840730"><ele></ele><time>2022-6-18T3:16:8Z</time></trkpt>
<trkpt lat="49.1411571" lon="2.6842314"><ele></ele><time>2022-6-18T3:16:11Z</time></trkpt>
<trkpt lat="49.1409988" lon="2.6843970"><ele></ele><time>2022-6-18T3:16:14Z</time></trkpt>
<trkpt lat="49.1408548" lon="2.6845767"><ele></ele><time>2022-6-18T3:16:17Z</time></trkpt>
<trkpt lat="49.1406891" lon="2.6847473"><ele></ele><time>2022-6-18T3:16:20Z</time></trkpt>
<trkpt lat="49.1404923" lon="2.6849983"><ele></ele><time>2022-6-18T3:16:23Z</time></trkpt>
<trkpt lat="49.1403480" lon="2.6851721"><ele></ele><time>2022-6-18T3:16:26Z</time></trkpt>
<trkpt lat="49.1401829" lon="2.6853438"><ele></ele><time>2022-6-18T3:16:29Z</time></trkpt>
<trkpt lat="49.1400301" lon="2.6855185"><ele></ele><time>2022-6-18T3:16:32Z</time></trkpt>
<trkpt lat="49.1398843" lon="2.6856909"><ele></ele><time>2022-6-18T3:16:35Z</time></trkpt>
<trkpt lat="49.1397440" lon="2.6858670"><ele></ele><time>2022-6-18T3:16:38Z</time></trkpt>
<trkpt lat="49.1395760" lon="2.6860097"><ele></ele><time>2022-6-18T3:16:41Z</time></trkpt>
<trkpt lat="49.1393905" lon="2.6859314"><ele></ele><time>2022-6-18T3:16:44Z</time></trkpt>
<trkpt lat="49.1391997" lon="2.6859573"><ele></ele><time>2022-6-18T3:16:47Z</time></trkpt>
<trkpt lat="49.1390302" lon="2.6861079"><ele></ele><time>2022-6-18T3:16:50Z</time></trkpt>
<trkpt lat="49.1388305" lon="2.6862241"><ele></ele><time>2022-6-18T3:16:53Z</time></trkpt>
<trkpt lat="49.1386899" lon="2.6864449"><ele></ele><time>2022-6-18T3:16:56Z</time></trkpt>
<trkpt lat="49.1385169" lon="2.6865343"><ele></ele><time>2022-6-18T3:16:59Z</time></trkpt>
<trkpt lat="49.1383179" lon="2.6865513"><ele></ele><time>2022-6-18T3:17:2Z</time></trkpt>
<trkpt lat="49.1381484" lon="2.6864129"><ele></ele><time>2022-6-18T3:17:5Z</time></trkpt>
<trkpt lat="49.1380029" lon="2.6865754"><ele></ele><time>2022-6-18T3:17:8Z</time></trkpt>
<trkpt lat="49.1378343" lon="2.6867857"><ele></ele><time>2022-6-18T3:17:11Z</time></trkpt>
<trkpt lat="49.1377124" lon="2.6870423"><ele></ele><time>2022-6-18T3:17:14Z</time></trkpt>
<trkpt lat="49.1375081" lon="2.6870615"><ele></ele><time>2022-6-18T3:17:17Z</time></trkpt>
<trkpt lat="49.1372827" lon="2.6869879"><ele></ele><time>2022-6-18T3:17:20Z</time></trkpt>
<trkpt lat="49.1370663" lon="2.6870051"><ele></ele><time>2022-6-18T3:17:23Z</time></trkpt>
<trkpt lat="49.1368769" lon="2.6870427"><ele></ele><time>2022-6-18T3:17:26Z</time></trkpt>
<trkpt lat="49.1368087" lon="2.6873438"><ele></ele><time>2022-6-18T3:17:29Z</time></trkpt>
<trkpt lat="49.1367208" lon="2.6876240"><ele></ele><time>2022-6-18T3:17:32Z</time></trkpt>
<trkpt lat="49.1367578" lon="2.6873422"><ele></ele><time>2022-6-18T3:17:35Z</time></trkpt>
<trkpt lat="49.1366248" lon="2.6871010"><ele></ele><time>2022-6-18T3:17:38Z</time></trkpt>
<trkpt lat="49.1364138" lon="2.6871470"><ele></ele><time>2022-6-18T3:17:41Z</time></trkpt>
<trkpt lat="49.1362268" lon="2.6871849"><ele></ele><time>2022-6-18T3:17:44Z</time></trkpt>
<trkpt lat="49.1360276" lon="2.6871324"><ele></ele><time>2022-6-18T3:17:47Z</time></trkpt>
<trkpt lat="49.1358381" lon="2.6870796"><ele></ele><time>2022-6-18T3:17:50Z</time></trkpt>
<trkpt lat="49.1356465" lon="2.6870542"><ele></ele><time>2022-6-18T3:17:53Z</time></trkpt>
<trkpt lat="49.1354843" lon="2.6869254"><ele></ele><time>2022-6-18T3:17:56Z</time></trkpt>
<trkpt lat="49.1353021" lon="2.6867424"><ele></ele><time>2022-6-18T3:17:59Z</time></trkpt>
<trkpt lat="49.1351734" lon="2.6865216"><ele></ele><time>2022-6-18T3:18:2Z</time></trkpt>
<trkpt lat="49.1350140" lon="2.6863358"><ele></ele><time>2022-6-18T3:18:5Z</time></trkpt>
<trkpt lat="49.1348670" lon="2.6861441"><ele></ele><time>2022-6-18T3:18:8Z</time></trkpt>
<trkpt lat="49.1346839" lon="2.6860560"><ele></ele><time>2022-6-18T3:18:11Z</time></trkpt>
<trkpt lat="49.1345045" lon="2.6859119"><ele></ele><time>2022-6-18T3:18:14Z</time></trkpt>
<trkpt lat="49.1343253" lon="2.6858219"><ele></ele><time>2022-6-18T3:18:17Z</time></trkpt>
<trkpt lat="49.1341508" lon="2.6858977"><ele></ele><time>2022-6-18T3:18:20Z</time></trkpt>
<trkpt lat="49.1339666" lon="2.6858835"><ele></ele><time>2022-6-18T3:18:23Z</time></trkpt>
<trkpt lat="49.1337725" lon="2.6858577"><ele></ele><time>2022-6-18T3:18:26Z</time></trkpt>
<trkpt lat="49.1335873" lon="2.6857262"><ele></ele><time>2022-6-18T3:18:29Z</time></trkpt>
<trkpt lat="49.1334281" lon="2.6855878"><ele></ele><time>2022-6-18T3:18:32Z</time></trkpt>
<trkpt lat="49.1332331" lon="2.6855155"><ele></ele><time>2022-6-18T3:18:35Z</time></trkpt>
<trkpt lat="49.1330538" lon="2.6854670"><ele></ele><time>2022-6-18T3:18:38Z</time></trkpt>
<trkpt lat="49.1328611" lon="2.6853973"><ele></ele><time>2022-6-18T3:18:41Z</time></trkpt>
<trkpt lat="49.1327257" lon="2.6852122"><ele></ele><time>2022-6-18T3:18:44Z</time></trkpt>
<trkpt lat="49.1326214" lon="2.6849531"><ele></ele><time>2022-6-18T3:18:47Z</time></trkpt>
<trkpt lat="49.1324606" lon="2.6848028"><ele></ele><time>2022-6-18T3:18:50Z</time></trkpt>
<trkpt lat="49.1323458" lon="2.6845673"><ele></ele><time>2022-6-18T3:18:53Z</time></trkpt>
<trkpt lat="49.1322935" lon="2.6842700"><ele></ele><time>2022-6-18T3:18:56Z</time></trkpt>
<trkpt lat="49.1322459" lon="2.6839952"><ele></ele><time>2022-6-18T3:18:59Z</time></trkpt>
<trkpt lat="49.1323601" lon="2.6837626"><ele></ele><time>2022-6-18T3:19:2Z</time></trkpt>
<trkpt lat="49.1325487" lon="2.6836775"><ele></ele><time>2022-6-18T3:19:5Z</time></trkpt>
<trkpt lat="49.1327416" lon="2.6836303"><ele></ele><time>2022-6-18T3:19:8Z</time></trkpt>
<trkpt lat="49.1329044" lon="2.6834988"><ele></ele><time>2022-6-18T3:19:11Z</time></trkpt>
<trkpt lat="49.1330051" lon="2.6832566"><ele></ele><time>2022-6-18T3:19:14Z</time></trkpt>
<trkpt lat="49.1329799" lon="2.6829746"><ele></ele><time>2022-6-18T3:19:17Z</time></trkpt>
<trkpt lat="49.1329857" lon="2.6826517"><ele></ele><time>2022-6-18T3:19:20Z</time></trkpt>
<trkpt lat="49.1329739" lon="2.6823135"><ele></ele><time>2022-6-18T3:19:23Z</time></trkpt>
<trkpt lat="49.1328807" lon="2.6820097"><ele></ele><time>2022-6-18T3:19:26Z</time></trkpt>
<trkpt lat="49.1326751" lon="2.6818341"><ele></ele><time>2022-6-18T3:19:29Z</time></trkpt>
<trkpt lat="49.1325128" lon="2.6816665"><ele></ele><time>2022-6-18T3:19:32Z</time></trkpt>
<trkpt lat="49.1323607" lon="2.6814978"><ele></ele><time>2022-6-18T3:19:35Z</time></trkpt>
<trkpt lat="49.1321858" lon="2.6814139"><ele></ele><time>2022-6-18T3:19:38Z</time></trkpt>
<trkpt lat="49.1320032" lon="2.6813156"><ele></ele><time>2022-6-18T3:19:41Z</time></trkpt>
<trkpt lat="49.1317734" lon="2.6812848"><ele></ele><time>2022-6-18T3:19:44Z</time></trkpt>
<trkpt lat="49.1315238" lon="2.6813092"><ele></ele><time>2022-6-18T3:19:47Z</time></trkpt>
<trkpt lat="49.1313110" lon="2.6813035"><ele></ele><time>2022-6-18T3:19:50Z</time></trkpt>
<trkpt lat="49.1310999" lon="2.6813560"><ele></ele><time>2022-6-18T3:19:53Z</time></trkpt>
<trkpt lat="49.1309117" lon="2.6813796"><ele></ele><time>2022-6-18T3:19:56Z</time></trkpt>
<trkpt lat="49.1309533" lon="2.6816523"><ele></ele><time>2022-6-18T3:19:59Z</time></trkpt>
<trkpt lat="49.1310205" lon="2.6819168"><ele></ele><time>2022-6-18T3:20:2Z</time></trkpt>
<trkpt lat="49.1310358" lon="2.6822072"><ele></ele><time>2022-6-18T3:20:5Z</time></trkpt>
<trkpt lat="49.1311577" lon="2.6824783"><ele></ele><time>2022-6-18T3:20:8Z</time></trkpt>
<trkpt lat="49.1312304" lon="2.6827759"><ele></ele><time>2022-6-18T3:20:11Z</time></trkpt>
<trkpt lat="49.1314313" lon="2.6829158"><ele></ele><time>2022-6-18T3:20:14Z</time></trkpt>
<trkpt lat="49.1315875" lon="2.6830561"><ele></ele><time>2022-6-18T3:20:17Z</time></trkpt>
<trkpt lat="49.1317381" lon="2.6832705"><ele></ele><time>2022-6-18T3:20:20Z</time></trkpt>
<trkpt lat="49.1318217" lon="2.6835728"><ele></ele><time>2022-6-18T3:20:23Z</time></trkpt>
<trkpt lat="49.1317866" lon="2.6838455"><ele></ele><time>2022-6-18T3:20:26Z</time></trkpt>
<trkpt lat="49.1316249" lon="2.6839703"><ele></ele><time>2022-6-18T3:20:29Z</time></trkpt>
<trkpt lat="49.1314680" lon="2.6841219"><ele></ele><time>2022-6-18T3:20:32Z</time></trkpt>
<trkpt lat="49.1312774" lon="2.6840891"><ele></ele><time>2022-6-18T3:20:35Z</time></trkpt>
<trkpt lat="49.1311547" lon="2.6843376"><ele></ele><time>2022-6-18T3:20:38Z</time></trkpt>
<trkpt lat="49.1310035" lon="2.6845207"><ele></ele><time>2022-6-18T3:20:41Z</time></trkpt>
<trkpt lat="49.1308167" lon="2.6845823"><ele></ele><time>2022-6-18T3:20:44Z</time></trkpt>
<trkpt lat="49.1306458" lon="2.6844456"><ele></ele><time>2022-6-18T3:20:47Z</time></trkpt>
<trkpt lat="49.1304800" lon="2.6845638"><ele></ele><time>2022-6-18T3:20:50Z</time></trkpt>
<trkpt lat="49.1303117" lon="2.6847301"><ele></ele><time>2022-6-18T3:20:53Z</time></trkpt>
<trkpt lat="49.1301507" lon="2.6848621"><ele></ele><time>2022-6-18T3:20:56Z</time></trkpt>
<trkpt lat="49.1299690" lon="2.6849151"><ele></ele><time>2022-6-18T3:20:59Z</time></trkpt>
<trkpt lat="49.1298016" lon="2.6850195"><ele></ele><time>2022-6-18T3:21:2Z</time></trkpt>
<trkpt lat="49.1296226" lon="2.6850652"><ele></ele><time>2022-6-18T3:21:5Z</time></trkpt>
<trkpt lat="49.1294433" lon="2.6849572"><ele></ele><time>2022-6-18T3:21:8Z</time></trkpt>
<trkpt lat="49.1292293" lon="2.6849578"><ele></ele><time>2022-6-18T3:21:11Z</time></trkpt>
<trkpt lat="49.1290366" lon="2.6851077"><ele></ele><time>2022-6-18T3:21:14Z</time></trkpt>
<trkpt lat="49.1288387" lon="2.6851346"><ele></ele><time>2022-6-18T3:21:17Z</time></trkpt>
<trkpt lat="49.1286429" lon="2.6852248"><ele></ele><time>2022-6-18T3:21:20Z</time></trkpt>
<trkpt lat="49.1284727" lon="2.6853413"><ele></ele><time>2022-6-18T3:21:23Z</time></trkpt>
<trkpt lat="49.1283079" lon="2.6854875"><ele></ele><time>2022-6-18T3:21:26Z</time></trkpt>
<trkpt lat="49.1281729" lon="2.6856855"><ele></ele><time>2022-6-18T3:21:29Z</time></trkpt>
<trkpt lat="49.1281514" lon="2.6860019"><ele></ele><time>2022-6-18T3:21:32Z</time></trkpt>
<trkpt lat="49.1281263" lon="2.6863322"><ele></ele><time>2022-6-18T3:21:35Z</time></trkpt>
<trkpt lat="49.1280741" lon="2.6866254"><ele></ele><time>2022-6-18T3:21:38Z</time></trkpt>
<trkpt lat="49.1279980" lon="2.6868989"><ele></ele><time>2022-6-18T3:21:41Z</time></trkpt>
<trkpt lat="49.1279435" lon="2.6871882"><ele></ele><time>2022-6-18T3:21:44Z</time></trkpt>
<trkpt lat="49.1278801" lon="2.6875032"><ele></ele><time>2022-6-18T3:21:47Z</time></trkpt>
<trkpt lat="49.1277975" lon="2.6878127"><ele></ele><time>2022-6-18T3:21:50Z</time></trkpt>
<trkpt lat="49.1277280" lon="2.6881037"><ele></ele><time>2022-6-18T3:21:53Z</time></trkpt>
<trkpt lat="49.1276507" lon="2.6883680"><ele></ele><time>2022-6-18T3:21:56Z</time></trkpt>
<trkpt lat="49.1275646" lon="2.6886435"><ele></ele><time>2022-6-18T3:21:59Z</time></trkpt>
<trkpt lat="49.1274880" lon="2.6889173"><ele></ele><time>2022-6-18T3:22:2Z</time></trkpt>
<trkpt lat="49.1274282" lon="2.6891826"><ele></ele><time>2022-6-18T3:22:5Z</time></trkpt>
<trkpt lat="49.1273722" lon="2.6894557"><ele></ele><time>2022-6-18T3:22:8Z</time></trkpt>
<trkpt lat="49.1273243" lon="2.6897358"><ele></ele><time>2022-6-18T3:22:11Z</time></trkpt>
<trkpt lat="49.1273780" lon="2.6900005"><ele></ele><time>2022-6-18T3:22:14Z</time></trkpt>
<trkpt lat="49.1272536" lon="2.6902000"><ele></ele><time>2022-6-18T3:22:17Z</time></trkpt>
<trkpt lat="49.1270823" lon="2.6902994"><ele></ele><time>2022-6-18T3:22:20Z</time></trkpt>
<trkpt lat="49.1269052" lon="2.6904212"><ele></ele><time>2022-6-18T3:22:23Z</time></trkpt>
<trkpt lat="49.1267316" lon="2.6905579"><ele></ele><time>2022-6-18T3:22:26Z</time></trkpt>
<trkpt lat="49.1265711" lon="2.6907502"><ele></ele><time>2022-6-18T3:22:29Z</time></trkpt>
<trkpt lat="49.1264760" lon="2.6909939"><ele></ele><time>2022-6-18T3:22:32Z</time></trkpt>
<trkpt lat="49.1263787" lon="2.6912505"><ele></ele><time>2022-6-18T3:22:35Z</time></trkpt>
<trkpt lat="49.1262370" lon="2.6914366"><ele></ele><time>2022-6-18T3:22:38Z</time></trkpt>
<trkpt lat="49.1260765" lon="2.6916336"><ele></ele><time>2022-6-18T3:22:41Z</time></trkpt>
<trkpt lat="49.1259175" lon="2.6918398"><ele></ele><time>2022-6-18T3:22:44Z</time></trkpt>
<trkpt lat="49.1257797" lon="2.6920220"><ele></ele><time>2022-6-18T3:22:47Z</time></trkpt>
<trkpt lat="49.1256489" lon="2.6922247"><ele></ele><time>2022-6-18T3:22:50Z</time></trkpt>
<trkpt lat="49.1255615" lon="2.6925126"><ele></ele><time>2022-6-18T3:22:53Z</time></trkpt>
<trkpt lat="49.1255718" lon="2.6928175"><ele></ele><time>2022-6-18T3:22:56Z</time></trkpt>
<trkpt lat="49.1256050" lon="2.6931084"><ele></ele><time>2022-6-18T3:22:59Z</time></trkpt>
<trkpt lat="49.1254245" lon="2.6932157"><ele></ele><time>2022-6-18T3:23:2Z</time></trkpt>
<trkpt lat="49.1252448" lon="2.6931594"><ele></ele><time>2022-6-18T3:23:5Z</time></trkpt>
</trkseg></trk></gpx>